Observation data for Van Horn on 04/23/2019      Previous  Date  Next       Current Mesonet Observations  Soil Data  Daily Summary Page  Observations in Plain Language
KVA1 230500Z 36007KT 16/09 A2996 RMK A01 T01640090  RH  061%=      5-min Rain = 0
KVA1 230501Z 00007KT 16/09 A2996 RMK A01 T01640089  RH  061%=      5-min Rain = 0
KVA1 230502Z 00006KT 16/09 A2996 RMK A01 T01630089  RH  062%=      5-min Rain = 0
KVA1 230503Z 00007KT 16/09 A2997 RMK A01 T01630089  RH  062%=      5-min Rain = 0
KVA1 230504Z 00007KT 16/09 A2997 RMK A01 T01630090  RH  062%=      5-min Rain = 0
KVA1 230505Z 00007KT 16/09 A2997 RMK A01 T01620089  RH  062%=      5-min Rain = 0
KVA1 230506Z 00007KT 16/09 A2997 RMK A01 T01630090  RH  062%=      5-min Rain = 0
KVA1 230507Z 00008KT 16/09 A2997 RMK A01 T01630090  RH  062%=      5-min Rain = 0
KVA1 230508Z 00008KT 16/09 A2997 RMK A01 T01630090  RH  062%=      5-min Rain = 0
KVA1 230509Z 00009KT 16/09 A2997 RMK A01 T01630090  RH  062%=      5-min Rain = 0
KVA1 230510Z 00009KT 16/09 A2997 RMK A01 T01640090  RH  062%=      5-min Rain = 0
KVA1 230511Z 00009KT 16/09 A2997 RMK A01 T01640090  RH  061%=      5-min Rain = 0
KVA1 230512Z 00009KT 16/09 A2997 RMK A01 T01640090  RH  061%=      5-min Rain = 0
KVA1 230513Z 36008KT 16/09 A2997 RMK A01 T01640090  RH  061%=      5-min Rain = 0
KVA1 230514Z 00009KT 16/09 A2997 RMK A01 T01640090  RH  061%=      5-min Rain = 0
KVA1 230515Z 00009KT 16/09 A2997 RMK A01 T01640090  RH  061%=      5-min Rain = 0
KVA1 230516Z 36009KT 16/09 A2997 RMK A01 T01640090  RH  061%=      5-min Rain = 0
KVA1 230517Z 00010KT 16/09 A2997 RMK A01 T01640089  RH  061%=      5-min Rain = 0
KVA1 230518Z 00010KT 17/09 A2997 RMK A01 T01650089  RH  061%=      5-min Rain = 0
KVA1 230519Z 36010KT 17/09 A2997 RMK A01 T01650090  RH  061%=      5-min Rain = 0
KVA1 230520Z 00009KT 17/09 A2997 RMK A01 T01650090  RH  061%=      5-min Rain = 0
KVA1 230521Z 36010KT 17/09 A2997 RMK A01 T01650090  RH  061%=      5-min Rain = 0
KVA1 230522Z 36011KT 17/09 A2997 RMK A01 T01650090  RH  061%=      5-min Rain = 0
KVA1 230523Z 36011KT 17/09 A2997 RMK A01 T01650090  RH  061%=      5-min Rain = 0
KVA1 230524Z 00009KT 17/09 A2998 RMK A01 T01650090  RH  061%=      5-min Rain = 0
KVA1 230525Z 01009KT 17/09 A2998 RMK A01 T01650090  RH  061%=      5-min Rain = 0
KVA1 230526Z 01008KT 17/09 A2998 RMK A01 T01650090  RH  061%=      5-min Rain = 0
KVA1 230527Z 01008KT 16/09 A2998 RMK A01 T01640090  RH  061%=      5-min Rain = 0
KVA1 230528Z 01008KT 16/09 A2998 RMK A01 T01640090  RH  062%=      5-min Rain = 0
KVA1 230529Z 02008KT 16/09 A2998 RMK A01 T01630090  RH  062%=      5-min Rain = 0
KVA1 230530Z 01009KT 16/09 A2998 RMK A01 T01630090  RH  062%=      5-min Rain = 0
KVA1 230531Z 01008KT 16/09 A2998 RMK A01 T01630090  RH  062%=      5-min Rain = 0
KVA1 230532Z 02007KT 16/09 A2999 RMK A01 T01630090  RH  062%=      5-min Rain = 0
KVA1 230533Z 02006KT 16/09 A2999 RMK A01 T01630090  RH  062%=      5-min Rain = 0
KVA1 230534Z 02007KT 16/09 A2999 RMK A01 T01640090  RH  061%=      5-min Rain = 0
KVA1 230535Z 02007KT 16/09 A2999 RMK A01 T01640090  RH  062%=      5-min Rain = 0
KVA1 230536Z 02007KT 16/09 A2999 RMK A01 T01640090  RH  061%=      5-min Rain = 0
KVA1 230537Z 02007KT 16/09 A2999 RMK A01 T01640089  RH  061%=      5-min Rain = 0
KVA1 230538Z 02007KT 16/09 A2999 RMK A01 T01630089  RH  061%=      5-min Rain = 0
KVA1 230539Z 02008KT 16/09 A2999 RMK A01 T01630089  RH  062%=      5-min Rain = 0
KVA1 230540Z 02009KT 16/09 A2999 RMK A01 T01630089  RH  062%=      5-min Rain = 0
KVA1 230541Z 01009KT 16/09 A2999 RMK A01 T01630089  RH  062%=      5-min Rain = 0
KVA1 230542Z 01008KT 16/09 A2999 RMK A01 T01630089  RH  061%=      5-min Rain = 0
KVA1 230543Z 02008KT 16/09 A2999 RMK A01 T01630089  RH  061%=      5-min Rain = 0
KVA1 230544Z 02007KT 16/09 A2999 RMK A01 T01630089  RH  061%=      5-min Rain = 0
KVA1 230545Z 01007KT 16/09 A2999 RMK A01 T01630089  RH  062%=      5-min Rain = 0
KVA1 230546Z 01008KT 16/09 A2999 RMK A01 T01620088  RH  062%=      5-min Rain = 0
KVA1 230547Z 01008KT 16/09 A2999 RMK A01 T01620089  RH  062%=      5-min Rain = 0
KVA1 230548Z 01010KT 16/09 A2999 RMK A01 T01620088  RH  062%=      5-min Rain = 0
KVA1 230549Z 01010KT 16/09 A2999 RMK A01 T01630088  RH  061%=      5-min Rain = 0
KVA1 230550Z 00010KT 16/09 A2999 RMK A01 T01640088  RH  061%=      5-min Rain = 0
KVA1 230551Z 00012KT 16/09 A2998 RMK A01 T01640088  RH  060%=      5-min Rain = 0
KVA1 230552Z 00012KT 16/09 A2998 RMK A01 T01640088  RH  060%=      5-min Rain = 0
KVA1 230553Z 01012KT 17/09 A2998 RMK A01 T01650088  RH  060%=      5-min Rain = 0
KVA1 230554Z 00011KT 17/09 A2998 RMK A01 T01650088  RH  061%=      5-min Rain = 0
KVA1 230555Z 01011KT 17/09 A2998 RMK A01 T01650089  RH  061%=      5-min Rain = 0
KVA1 230556Z 01008KT 17/09 A2998 RMK A01 T01650089  RH  061%=      5-min Rain = 0
KVA1 230557Z 01010KT 17/09 A2998 RMK A01 T01650090  RH  061%=      5-min Rain = 0
KVA1 230558Z 01009KT 17/09 A2998 RMK A01 T01650090  RH  061%=      5-min Rain = 0
KVA1 230559Z 01010KT 17/09 A2998 RMK A01 T01650091  RH  061%=      5-min Rain = 0
KVA1 230600Z 01010KT 17/09 A2998 RMK A01 T01650091  RH  062%=      5-min Rain = 0
KVA1 230601Z 02009KT 17/09 A2998 RMK A01 T01660092  RH  062%=      5-min Rain = 0
KVA1 230602Z 01009KT 17/09 A2999 RMK A01 T01660092  RH  062%=      5-min Rain = 0
KVA1 230603Z 02009KT 17/09 A2999 RMK A01 T01660093  RH  062%=      5-min Rain = 0
KVA1 230604Z 02008KT 17/09 A2999 RMK A01 T01660092  RH  062%=      5-min Rain = 0
KVA1 230605Z 02010KT 17/09 A2999 RMK A01 T01660092  RH  062%=      5-min Rain = 0
KVA1 230606Z 02009KT 17/09 A2999 RMK A01 T01650092  RH  062%=      5-min Rain = 0
KVA1 230607Z 03009KT 17/09 A2999 RMK A01 T01650093  RH  062%=      5-min Rain = 0
KVA1 230608Z 03010KT 17/09 A2999 RMK A01 T01650094  RH  063%=      5-min Rain = 0
KVA1 230609Z 03011KT 17/10 A2999 RMK A01 T01650095  RH  063%=      5-min Rain = 0
KVA1 230610Z 04011KT 16/10 A2999 RMK A01 T01630097  RH  065%=      5-min Rain = 0
KVA1 230611Z 04011KT 16/10 A2999 RMK A01 T01620097  RH  066%=      5-min Rain = 0
KVA1 230612Z 04012KT 16/10 A2999 RMK A01 T01600097  RH  066%=      5-min Rain = 0
KVA1 230613Z 04011KT 16/10 A2999 RMK A01 T01580097  RH  067%=      5-min Rain = 0
KVA1 230614Z 05010KT 16/10 A2999 RMK A01 T01560097  RH  068%=      5-min Rain = 0
KVA1 230615Z 05012KT 16/10 A2999 RMK A01 T01550097  RH  069%=      5-min Rain = 0
KVA1 230616Z 05012KT 15/10 A2999 RMK A01 T01520098  RH  070%=      5-min Rain = 0
KVA1 230617Z 05012KT 15/10 A2999 RMK A01 T01500098  RH  071%=      5-min Rain = 0
KVA1 230618Z 05012KT 15/10 A2999 RMK A01 T01480099  RH  072%=      5-min Rain = 0
KVA1 230619Z 05012KT 15/10 A2999 RMK A01 T01470099  RH  073%=      5-min Rain = 0
KVA1 230620Z 04014KT 15/10 A30 RMK A01 T01450100  RH  074%=      5-min Rain = 0
KVA1 230621Z 04014KT 14/10 A30 RMK A01 T01440101  RH  075%=      5-min Rain = 0
KVA1 230622Z 04014KT 14/10 A30 RMK A01 T01430102  RH  076%=      5-min Rain = 0
KVA1 230623Z 04013KT 14/10 A30 RMK A01 T01410101  RH  077%=      5-min Rain = 0
KVA1 230624Z 04010KT 14/10 A30 RMK A01 T01400101  RH  077%=      5-min Rain = 0
KVA1 230625Z 04013KT 14/10 A30 RMK A01 T01400101  RH  077%=      5-min Rain = 0
KVA1 230626Z 03011KT 14/10 A30 RMK A01 T01400101  RH  078%=      5-min Rain = 0
KVA1 230627Z 03014KT 14/10 A30 RMK A01 T01400101  RH  078%=      5-min Rain = 0
KVA1 230628Z 04011G16KT 14/10 A30 RMK A01 T01400101  RH  077%=      5-min Rain = 0
KVA1 230629Z 04011KT 14/10 A30 RMK A01 T01400100  RH  077%=      5-min Rain = 0
KVA1 230630Z 04013KT 14/10 A2999 RMK A01 T01390100  RH  077%=      5-min Rain = 0
KVA1 230631Z 03011KT 14/10 A2999 RMK A01 T01390099  RH  077%=      5-min Rain = 0
KVA1 230632Z 03013KT 14/10 A2999 RMK A01 T01390099  RH  076%=      5-min Rain = 0
KVA1 230633Z 04014KT 14/10 A2999 RMK A01 T01390098  RH  076%=      5-min Rain = 0
KVA1 230634Z 03014KT 14/10 A2999 RMK A01 T01390097  RH  076%=      5-min Rain = 0
KVA1 230635Z 04012KT 14/10 A2999 RMK A01 T01400096  RH  075%=      5-min Rain = 0
KVA1 230636Z 04010G16KT 14/10 A30 RMK A01 T01410096  RH  074%=      5-min Rain = 0
KVA1 230637Z 04014G19KT 14/10 A2999 RMK A01 T01420095  RH  073%=      5-min Rain = 0
KVA1 230638Z 04015G20KT 14/10 A2999 RMK A01 T01440095  RH  072%=      5-min Rain = 0
KVA1 230639Z 04015KT 15/09 A30 RMK A01 T01450094  RH  072%=      5-min Rain = 0
KVA1 230640Z 04014KT 15/09 A30 RMK A01 T01450094  RH  071%=      5-min Rain = 0
KVA1 230641Z 03013G18KT 15/09 A30 RMK A01 T01460094  RH  071%=      5-min Rain = 0
KVA1 230642Z 04014KT 15/09 A30 RMK A01 T01450094  RH  071%=      5-min Rain = 0
KVA1 230643Z 04014KT 15/09 A30 RMK A01 T01460094  RH  071%=      5-min Rain = 0
KVA1 230644Z 04013KT 15/09 A30 RMK A01 T01460094  RH  071%=      5-min Rain = 0
KVA1 230645Z 05012KT 15/10 A30 RMK A01 T01460095  RH  071%=      5-min Rain = 0
KVA1 230646Z 04011KT 15/10 A30 RMK A01 T01460095  RH  071%=      5-min Rain = 0
KVA1 230647Z 03013KT 15/09 A30 RMK A01 T01460094  RH  071%=      5-min Rain = 0
KVA1 230648Z 03014KT 15/09 A30 RMK A01 T01460094  RH  071%=      5-min Rain = 0
KVA1 230649Z 03016KT 15/09 A30 RMK A01 T01480094  RH  070%=      5-min Rain = 0
KVA1 230650Z 03015KT 15/09 A30 RMK A01 T01480094  RH  070%=      5-min Rain = 0
KVA1 230651Z 03015KT 15/09 A30 RMK A01 T01480094  RH  070%=      5-min Rain = 0
KVA1 230652Z 04015KT 15/09 A30 RMK A01 T01480094  RH  070%=      5-min Rain = 0
KVA1 230653Z 04015KT 15/09 A3001 RMK A01 T01480094  RH  070%=      5-min Rain = 0
KVA1 230654Z 05011KT 15/10 A3001 RMK A01 T01490095  RH  070%=      5-min Rain = 0
KVA1 230655Z 06010KT 15/10 A3001 RMK A01 T01490095  RH  070%=      5-min Rain = 0
KVA1 230656Z 06010G15KT 15/10 A3001 RMK A01 T01480095  RH  071%=      5-min Rain = 0
KVA1 230657Z 04010KT 15/10 A3001 RMK A01 T01470095  RH  071%=      5-min Rain = 0
KVA1 230658Z 03013KT 15/10 A3001 RMK A01 T01470095  RH  071%=      5-min Rain = 0
KVA1 230659Z 03013KT 15/09 A3001 RMK A01 T01480094  RH  070%=      5-min Rain = 0
KVA1 230700Z 03012KT 15/09 A3001 RMK A01 T01490093  RH  069%=      5-min Rain = 0
KVA1 230701Z 04011KT 15/09 A3001 RMK A01 T01500094  RH  069%=      5-min Rain = 0
KVA1 230702Z 03013KT 15/09 A3001 RMK A01 T01500094  RH  069%=      5-min Rain = 0
KVA1 230703Z 04011KT 15/09 A3001 RMK A01 T01500094  RH  069%=      5-min Rain = 0
KVA1 230704Z 04012KT 15/09 A3001 RMK A01 T01500094  RH  070%=      5-min Rain = 0
KVA1 230705Z 05010KT 15/10 A3001 RMK A01 T01490095  RH  070%=      5-min Rain = 0
KVA1 230706Z 04009KT 15/10 A3001 RMK A01 T01490095  RH  070%=      5-min Rain = 0
KVA1 230707Z 04011KT 15/10 A3001 RMK A01 T01480095  RH  070%=      5-min Rain = 0
KVA1 230708Z 03011KT 15/10 A3001 RMK A01 T01470095  RH  071%=      5-min Rain = 0
KVA1 230709Z 04012KT 15/10 A3001 RMK A01 T01470095  RH  071%=      5-min Rain = 0
KVA1 230710Z 03010KT 15/10 A3002 RMK A01 T01460095  RH  071%=      5-min Rain = 0
KVA1 230711Z 03010KT 15/10 A3002 RMK A01 T01460095  RH  071%=      5-min Rain = 0
KVA1 230712Z 03010KT 15/09 A3002 RMK A01 T01460094  RH  071%=      5-min Rain = 0
KVA1 230713Z 03010KT 15/09 A3002 RMK A01 T01460094  RH  071%=      5-min Rain = 0
KVA1 230714Z 03009KT 15/09 A3002 RMK A01 T01460094  RH  071%=      5-min Rain = 0
KVA1 230715Z 02010KT 15/10 A3002 RMK A01 T01460095  RH  071%=      5-min Rain = 0
KVA1 230716Z 02008KT 15/10 A3002 RMK A01 T01470095  RH  071%=      5-min Rain = 0
KVA1 230717Z 02009KT 15/09 A3002 RMK A01 T01460094  RH  071%=      5-min Rain = 0
KVA1 230718Z 02008KT 15/09 A3002 RMK A01 T01450094  RH  071%=      5-min Rain = 0
KVA1 230719Z 02008KT 15/09 A3002 RMK A01 T01450094  RH  072%=      5-min Rain = 0
KVA1 230720Z 03007KT 14/09 A3002 RMK A01 T01440094  RH  072%=      5-min Rain = 0
KVA1 230721Z 03009KT 14/09 A3002 RMK A01 T01440094  RH  072%=      5-min Rain = 0
KVA1 230722Z 03008KT 14/10 A3002 RMK A01 T01440095  RH  072%=      5-min Rain = 0
KVA1 230723Z 03008KT 14/10 A3002 RMK A01 T01440095  RH  072%=      5-min Rain = 0
KVA1 230724Z 03008KT 14/10 A3002 RMK A01 T01440095  RH  072%=      5-min Rain = 0
KVA1 230725Z 03008KT 14/10 A3002 RMK A01 T01440095  RH  073%=      5-min Rain = 0
KVA1 230726Z 03009KT 14/10 A3002 RMK A01 T01430095  RH  073%=      5-min Rain = 0
KVA1 230727Z 03008KT 14/10 A3002 RMK A01 T01430095  RH  073%=      5-min Rain = 0
KVA1 230728Z 03008KT 14/10 A3002 RMK A01 T01430095  RH  073%=      5-min Rain = 0
KVA1 230729Z 03008KT 14/10 A3002 RMK A01 T01430095  RH  072%=      5-min Rain = 0
KVA1 230730Z 03007KT 14/10 A3002 RMK A01 T01440095  RH  072%=      5-min Rain = 0
KVA1 230731Z 03007KT 14/10 A3002 RMK A01 T01440095  RH  072%=      5-min Rain = 0
KVA1 230732Z 03006KT 14/10 A3002 RMK A01 T01440095  RH  072%=      5-min Rain = 0
KVA1 230733Z 04007KT 14/10 A3002 RMK A01 T01440095  RH  072%=      5-min Rain = 0
KVA1 230734Z 03007KT 14/10 A3002 RMK A01 T01440095  RH  072%=      5-min Rain = 0
KVA1 230735Z 04006KT 14/10 A3002 RMK A01 T01440095  RH  073%=      5-min Rain = 0
KVA1 230736Z 04005KT 14/10 A3002 RMK A01 T01430095  RH  073%=      5-min Rain = 0
KVA1 230737Z 03006KT 14/10 A3002 RMK A01 T01430095  RH  073%=      5-min Rain = 0
KVA1 230738Z 03006KT 14/10 A3002 RMK A01 T01430095  RH  073%=      5-min Rain = 0
KVA1 230739Z 03005KT 14/10 A3002 RMK A01 T01430095  RH  073%=      5-min Rain = 0
KVA1 230740Z 04006KT 14/10 A3002 RMK A01 T01420095  RH  073%=      5-min Rain = 0
KVA1 230741Z 04006KT 14/10 A3002 RMK A01 T01420095  RH  073%=      5-min Rain = 0
KVA1 230742Z 03005KT 14/10 A3002 RMK A01 T01420096  RH  073%=      5-min Rain = 0
KVA1 230743Z 04006KT 14/10 A3002 RMK A01 T01420096  RH  073%=      5-min Rain = 0
KVA1 230744Z 04007KT 14/10 A3002 RMK A01 T01420096  RH  073%=      5-min Rain = 0
KVA1 230745Z 05006KT 14/10 A3002 RMK A01 T01420096  RH  073%=      5-min Rain = 0
KVA1 230746Z 05006KT 14/10 A3002 RMK A01 T01420095  RH  073%=      5-min Rain = 0
KVA1 230747Z 05005KT 14/10 A3002 RMK A01 T01430096  RH  073%=      5-min Rain = 0
KVA1 230748Z 05006KT 14/10 A3002 RMK A01 T01420095  RH  073%=      5-min Rain = 0
KVA1 230749Z 05005KT 14/10 A3002 RMK A01 T01420096  RH  074%=      5-min Rain = 0
KVA1 230750Z 04006KT 14/10 A3002 RMK A01 T01410095  RH  074%=      5-min Rain = 0
KVA1 230751Z 04005KT 14/10 A3002 RMK A01 T01410095  RH  074%=      5-min Rain = 0
KVA1 230752Z 04006KT 14/10 A3002 RMK A01 T01410095  RH  074%=      5-min Rain = 0
KVA1 230753Z 04004KT 14/10 A3001 RMK A01 T01410095  RH  074%=      5-min Rain = 0
KVA1 230754Z 03004KT 14/10 A3001 RMK A01 T01410095  RH  073%=      5-min Rain = 0
KVA1 230755Z 03005KT 14/10 A3001 RMK A01 T01410095  RH  074%=      5-min Rain = 0
KVA1 230756Z 03006KT 14/10 A3001 RMK A01 T01410095  RH  074%=      5-min Rain = 0
KVA1 230757Z 02007KT 14/10 A3001 RMK A01 T01410095  RH  074%=      5-min Rain = 0
KVA1 230758Z 02005KT 14/10 A3001 RMK A01 T01410095  RH  074%=      5-min Rain = 0
KVA1 230759Z 03006KT 14/10 A3001 RMK A01 T01410095  RH  074%=      5-min Rain = 0
KVA1 230800Z 04006KT 14/10 A3001 RMK A01 T01410095  RH  074%=      5-min Rain = 0
KVA1 230801Z 05005KT 14/10 A3001 RMK A01 T01410095  RH  074%=      5-min Rain = 0
KVA1 230802Z 06005KT 14/10 A3001 RMK A01 T01410095  RH  073%=      5-min Rain = 0
KVA1 230803Z 06005KT 14/10 A3001 RMK A01 T01410095  RH  074%=      5-min Rain = 0
KVA1 230804Z 06005KT 14/10 A3001 RMK A01 T01410095  RH  074%=      5-min Rain = 0
KVA1 230805Z 06006KT 14/10 A3001 RMK A01 T01400095  RH  074%=      5-min Rain = 0
KVA1 230806Z 06006KT 14/10 A3001 RMK A01 T01400095  RH  074%=      5-min Rain = 0
KVA1 230807Z 05006KT 14/10 A3001 RMK A01 T01400095  RH  074%=      5-min Rain = 0
KVA1 230808Z 05005KT 14/10 A3001 RMK A01 T01410095  RH  074%=      5-min Rain = 0
KVA1 230809Z 05005KT 14/10 A3001 RMK A01 T01400095  RH  074%=      5-min Rain = 0
KVA1 230810Z 06005KT 14/10 A3001 RMK A01 T01410096  RH  074%=      5-min Rain = 0
KVA1 230811Z 05005KT 14/10 A3001 RMK A01 T01400096  RH  074%=      5-min Rain = 0
KVA1 230812Z 05005KT 14/10 A3001 RMK A01 T01410096  RH  075%=      5-min Rain = 0
KVA1 230813Z 06005KT 14/10 A3001 RMK A01 T01400096  RH  075%=      5-min Rain = 0
KVA1 230814Z 05006KT 14/10 A3001 RMK A01 T01400096  RH  075%=      5-min Rain = 0
KVA1 230815Z 04005KT 14/10 A3001 RMK A01 T01400096  RH  075%=      5-min Rain = 0
KVA1 230816Z 05005KT 14/10 A3001 RMK A01 T01400096  RH  075%=      5-min Rain = 0
KVA1 230817Z 04005KT 14/10 A3001 RMK A01 T01410096  RH  075%=      5-min Rain = 0
KVA1 230818Z 04005KT 14/10 A3001 RMK A01 T01400095  RH  074%=      5-min Rain = 0
KVA1 230819Z 04005KT 14/10 A3001 RMK A01 T01400095  RH  074%=      5-min Rain = 0
KVA1 230820Z 05006KT 14/10 A3001 RMK A01 T01400095  RH  074%=      5-min Rain = 0
KVA1 230821Z 05005KT 14/10 A3001 RMK A01 T01410095  RH  074%=      5-min Rain = 0
KVA1 230822Z 04005KT 14/09 A3001 RMK A01 T01400094  RH  074%=      5-min Rain = 0
KVA1 230823Z 05007KT 14/10 A3001 RMK A01 T01400095  RH  074%=      5-min Rain = 0
KVA1 230824Z 04007KT 14/10 A3001 RMK A01 T01410095  RH  074%=      5-min Rain = 0
KVA1 230825Z 04007KT 14/10 A3001 RMK A01 T01410095  RH  074%=      5-min Rain = 0
KVA1 230826Z 04007KT 14/10 A3001 RMK A01 T01410095  RH  074%=      5-min Rain = 0
KVA1 230827Z 04008KT 14/10 A3001 RMK A01 T01420095  RH  073%=      5-min Rain = 0
KVA1 230828Z 04009KT 14/09 A3001 RMK A01 T01420094  RH  073%=      5-min Rain = 0
KVA1 230829Z 04008KT 14/09 A3001 RMK A01 T01420094  RH  073%=      5-min Rain = 0
KVA1 230830Z 04008KT 14/09 A3001 RMK A01 T01430093  RH  072%=      5-min Rain = 0
KVA1 230831Z 03009KT 14/09 A3001 RMK A01 T01430093  RH  072%=      5-min Rain = 0
KVA1 230832Z 03009KT 14/09 A3001 RMK A01 T01430093  RH  072%=      5-min Rain = 0
KVA1 230833Z 03008KT 14/09 A3001 RMK A01 T01430094  RH  072%=      5-min Rain = 0
KVA1 230834Z 03009KT 14/09 A3001 RMK A01 T01430094  RH  072%=      5-min Rain = 0
KVA1 230835Z 04009KT 14/09 A3001 RMK A01 T01440094  RH  072%=      5-min Rain = 0
KVA1 230836Z 03010KT 14/10 A3001 RMK A01 T01440095  RH  072%=      5-min Rain = 0
KVA1 230837Z 04009KT 14/09 A3001 RMK A01 T01440094  RH  072%=      5-min Rain = 0
KVA1 230838Z 04008KT 14/10 A3001 RMK A01 T01440095  RH  072%=      5-min Rain = 0
KVA1 230839Z 04008KT 14/10 A3001 RMK A01 T01440095  RH  072%=      5-min Rain = 0
KVA1 230840Z 04008KT 14/10 A3001 RMK A01 T01430095  RH  073%=      5-min Rain = 0
KVA1 230841Z 04008KT 14/10 A3001 RMK A01 T01430095  RH  073%=      5-min Rain = 0
KVA1 230842Z 04008KT 14/10 A3001 RMK A01 T01430095  RH  073%=      5-min Rain = 0
KVA1 230843Z 04007KT 14/10 A30 RMK A01 T01420095  RH  073%=      5-min Rain = 0
KVA1 230844Z 05007KT 14/09 A30 RMK A01 T01420094  RH  073%=      5-min Rain = 0
KVA1 230845Z 05007KT 14/09 A30 RMK A01 T01410094  RH  073%=      5-min Rain = 0
KVA1 230846Z 05006KT 14/09 A30 RMK A01 T01410094  RH  073%=      5-min Rain = 0
KVA1 230847Z 06006KT 14/09 A30 RMK A01 T01400094  RH  074%=      5-min Rain = 0
KVA1 230848Z 06006KT 14/09 A30 RMK A01 T01390094  RH  074%=      5-min Rain = 0
KVA1 230849Z 07004KT 14/09 A3001 RMK A01 T01390093  RH  074%=      5-min Rain = 0
KVA1 230850Z 08006KT 14/09 A3001 RMK A01 T01380093  RH  074%=      5-min Rain = 0
KVA1 230851Z 07005KT 14/09 A3001 RMK A01 T01370093  RH  075%=      5-min Rain = 0
KVA1 230852Z 08005KT 14/09 A3001 RMK A01 T01360093  RH  075%=      5-min Rain = 0
KVA1 230853Z 07006KT 14/09 A3001 RMK A01 T01350093  RH  076%=      5-min Rain = 0
KVA1 230854Z 07005KT 13/09 A3001 RMK A01 T01340093  RH  076%=      5-min Rain = 0
KVA1 230855Z 07005KT 13/09 A3001 RMK A01 T01330093  RH  076%=      5-min Rain = 0
KVA1 230856Z 07005KT 13/09 A3001 RMK A01 T01330093  RH  077%=      5-min Rain = 0
KVA1 230857Z 07006KT 13/09 A30 RMK A01 T01330094  RH  077%=      5-min Rain = 0
KVA1 230858Z 07006KT 13/09 A30 RMK A01 T01330094  RH  077%=      5-min Rain = 0
KVA1 230859Z 08006KT 13/09 A3001 RMK A01 T01330094  RH  077%=      5-min Rain = 0
KVA1 230900Z 08006KT 13/09 A3001 RMK A01 T01330094  RH  077%=      5-min Rain = 0
KVA1 230901Z 08007KT 13/09 A3001 RMK A01 T01320093  RH  077%=      5-min Rain = 0
KVA1 230902Z 08006KT 13/09 A3001 RMK A01 T01310093  RH  078%=      5-min Rain = 0
KVA1 230903Z 07005KT 13/09 A3001 RMK A01 T01310093  RH  078%=      5-min Rain = 0
KVA1 230904Z 08006KT 13/09 A30 RMK A01 T01310093  RH  078%=      5-min Rain = 0
KVA1 230905Z 08007KT 13/09 A30 RMK A01 T01300093  RH  078%=      5-min Rain = 0
KVA1 230906Z 08006KT 13/09 A30 RMK A01 T01300094  RH  079%=      5-min Rain = 0
KVA1 230907Z 07007KT 13/09 A30 RMK A01 T01300094  RH  079%=      5-min Rain = 0
KVA1 230908Z 08007KT 13/09 A30 RMK A01 T01290094  RH  079%=      5-min Rain = 0
KVA1 230909Z 08007KT 13/09 A30 RMK A01 T01300094  RH  079%=      5-min Rain = 0
KVA1 230910Z 08007KT 13/09 A30 RMK A01 T01300094  RH  079%=      5-min Rain = 0
KVA1 230911Z 08007KT 13/09 A30 RMK A01 T01290094  RH  079%=      5-min Rain = 0
KVA1 230912Z 08008KT 13/09 A30 RMK A01 T01290094  RH  079%=      5-min Rain = 0
KVA1 230913Z 08007KT 13/09 A30 RMK A01 T01290094  RH  079%=      5-min Rain = 0
KVA1 230914Z 08007KT 13/09 A30 RMK A01 T01290094  RH  079%=      5-min Rain = 0
KVA1 230915Z 09007KT 13/09 A30 RMK A01 T01280094  RH  079%=      5-min Rain = 0
KVA1 230916Z 09008KT 13/09 A30 RMK A01 T01290094  RH  080%=      5-min Rain = 0
KVA1 230917Z 09008KT 13/09 A30 RMK A01 T01280094  RH  080%=      5-min Rain = 0
KVA1 230918Z 09007KT 13/09 A30 RMK A01 T01280094  RH  080%=      5-min Rain = 0
KVA1 230919Z 09007KT 13/09 A30 RMK A01 T01280094  RH  080%=      5-min Rain = 0
KVA1 230920Z 09007KT 13/09 A30 RMK A01 T01280094  RH  080%=      5-min Rain = 0
KVA1 230921Z 09007KT 13/09 A30 RMK A01 T01270094  RH  080%=      5-min Rain = 0
KVA1 230922Z 08007KT 13/09 A30 RMK A01 T01270094  RH  080%=      5-min Rain = 0
KVA1 230923Z 08007KT 13/09 A30 RMK A01 T01270094  RH  080%=      5-min Rain = 0
KVA1 230924Z 08006KT 13/09 A30 RMK A01 T01270094  RH  080%=      5-min Rain = 0
KVA1 230925Z 08006KT 13/09 A30 RMK A01 T01270094  RH  080%=      5-min Rain = 0
KVA1 230926Z 08007KT 13/09 A30 RMK A01 T01270094  RH  081%=      5-min Rain = 0
KVA1 230927Z 08006KT 13/09 A3001 RMK A01 T01270094  RH  081%=      5-min Rain = 0
KVA1 230928Z 09006KT 13/09 A3001 RMK A01 T01270094  RH  081%=      5-min Rain = 0
KVA1 230929Z 09006KT 13/09 A3001 RMK A01 T01270094  RH  081%=      5-min Rain = 0
KVA1 230930Z 09006KT 13/09 A3001 RMK A01 T01270094  RH  081%=      5-min Rain = 0
KVA1 230931Z 09006KT 13/09 A3001 RMK A01 T01270094  RH  081%=      5-min Rain = 0
KVA1 230932Z 09007KT 13/09 A3001 RMK A01 T01270094  RH  081%=      5-min Rain = 0
KVA1 230933Z 09007KT 13/09 A30 RMK A01 T01270094  RH  081%=      5-min Rain = 0
KVA1 230934Z 08007KT 13/10 A30 RMK A01 T01270095  RH  081%=      5-min Rain = 0
KVA1 230935Z 09007KT 13/10 A30 RMK A01 T01270095  RH  081%=      5-min Rain = 0
KVA1 230936Z 09008KT 13/10 A30 RMK A01 T01270095  RH  081%=      5-min Rain = 0
KVA1 230937Z 09008KT 13/10 A30 RMK A01 T01270095  RH  081%=      5-min Rain = 0
KVA1 230938Z 08008KT 13/10 A30 RMK A01 T01270095  RH  081%=      5-min Rain = 0
KVA1 230939Z 08009KT 13/10 A30 RMK A01 T01270096  RH  081%=      5-min Rain = 0
KVA1 230940Z 09009KT 13/10 A30 RMK A01 T01270096  RH  082%=      5-min Rain = 0
KVA1 230941Z 09009KT 13/10 A30 RMK A01 T01270096  RH  082%=      5-min Rain = 0
KVA1 230942Z 08010KT 13/10 A30 RMK A01 T01270097  RH  082%=      5-min Rain = 0
KVA1 230943Z 08011KT 13/10 A30 RMK A01 T01270097  RH  082%=      5-min Rain = 0
KVA1 230944Z 08011KT 13/10 A30 RMK A01 T01270097  RH  082%=      5-min Rain = 0
KVA1 230945Z 07011KT 13/10 A30 RMK A01 T01270098  RH  082%=      5-min Rain = 0
KVA1 230946Z 07009KT 13/10 A30 RMK A01 T01270099  RH  083%=      5-min Rain = 0
KVA1 230947Z 07009KT 13/10 A30 RMK A01 T01280099  RH  082%=      5-min Rain = 0
KVA1 230948Z 06010G15KT 13/10 A30 RMK A01 T01280099  RH  083%=      5-min Rain = 0
KVA1 230949Z 06013KT 13/10 A30 RMK A01 T01280101  RH  084%=      5-min Rain = 0
KVA1 230950Z 06012KT 13/10 A30 RMK A01 T01280101  RH  084%=      5-min Rain = 0
KVA1 230951Z 06013KT 13/10 A30 RMK A01 T01280102  RH  084%=      5-min Rain = 0
KVA1 230952Z 05010KT 13/10 A30 RMK A01 T01280102  RH  084%=      5-min Rain = 0
KVA1 230953Z 05009KT 13/10 A30 RMK A01 T01280102  RH  084%=      5-min Rain = 0
KVA1 230954Z 05010KT 13/10 A30 RMK A01 T01280103  RH  084%=      5-min Rain = 0
KVA1 230955Z 06010KT 13/10 A3001 RMK A01 T01290103  RH  085%=      5-min Rain = 0
KVA1 230956Z 06010KT 13/10 A3001 RMK A01 T01290104  RH  085%=      5-min Rain = 0
KVA1 230957Z 05012KT 13/10 A3001 RMK A01 T01290104  RH  085%=      5-min Rain = 0
KVA1 230958Z 05012KT 13/11 A3001 RMK A01 T01290105  RH  085%=      5-min Rain = 0
KVA1 230959Z 05010KT 13/11 A3001 RMK A01 T01290105  RH  085%=      5-min Rain = 0
KVA1 231000Z 05011KT 13/11 A3001 RMK A01 T01290105  RH  085%=      5-min Rain = 0
KVA1 231001Z 05012KT 13/11 A30 RMK A01 T01290105  RH  085%=      5-min Rain = 0
KVA1 231002Z 05011KT 13/11 A30 RMK A01 T01290105  RH  086%=      5-min Rain = 0
KVA1 231003Z 05009KT 13/11 A30 RMK A01 T01290105  RH  085%=      5-min Rain = 0
KVA1 231004Z 05011KT 13/11 A30 RMK A01 T01290105  RH  086%=      5-min Rain = 0
KVA1 231005Z 05012KT 13/11 A30 RMK A01 T01290105  RH  086%=      5-min Rain = 0
KVA1 231006Z 05013KT 13/11 A30 RMK A01 T01290106  RH  086%=      5-min Rain = 0
KVA1 231007Z 05015KT 13/11 A30 RMK A01 T01290106  RH  086%=      5-min Rain = 0
KVA1 231008Z 05016KT 13/11 A30 RMK A01 T01310107  RH  086%=      5-min Rain = 0
KVA1 231009Z 05016KT 13/11 A30 RMK A01 T01320108  RH  085%=      5-min Rain = 0
KVA1 231010Z 04015KT 13/11 A30 RMK A01 T01330108  RH  085%=      5-min Rain = 0
KVA1 231011Z 04015KT 13/11 A30 RMK A01 T01330108  RH  085%=      5-min Rain = 0
KVA1 231012Z 04013KT 13/11 A3001 RMK A01 T01340108  RH  085%=      5-min Rain = 0
KVA1 231013Z 03014KT 13/11 A3001 RMK A01 T01340108  RH  084%=      5-min Rain = 0
KVA1 231014Z 03012G17KT 13/11 A3001 RMK A01 T01340109  RH  084%=      5-min Rain = 0
KVA1 231015Z 03011KT 14/11 A3001 RMK A01 T01350109  RH  084%=      5-min Rain = 0
KVA1 231016Z 03010G15KT 13/11 A3001 RMK A01 T01340108  RH  084%=      5-min Rain = 0
KVA1 231017Z 04011KT 14/11 A3001 RMK A01 T01350109  RH  084%=      5-min Rain = 0
KVA1 231018Z 04011KT 14/11 A3001 RMK A01 T01350109  RH  084%=      5-min Rain = 0
KVA1 231019Z 04010KT 13/11 A3001 RMK A01 T01340109  RH  084%=      5-min Rain = 0
KVA1 231020Z 04011KT 14/11 A3001 RMK A01 T01350109  RH  084%=      5-min Rain = 0
KVA1 231021Z 04012G17KT 14/11 A3001 RMK A01 T01350109  RH  084%=      5-min Rain = 0
KVA1 231022Z 04012KT 14/11 A3001 RMK A01 T01350109  RH  084%=      5-min Rain = 0
KVA1 231023Z 04011KT 14/11 A3001 RMK A01 T01350109  RH  084%=      5-min Rain = 0
KVA1 231024Z 04010KT 14/11 A3001 RMK A01 T01350109  RH  084%=      5-min Rain = 0
KVA1 231025Z 04010KT 14/11 A3001 RMK A01 T01350109  RH  084%=      5-min Rain = 0
KVA1 231026Z 04011KT 14/11 A3001 RMK A01 T01350109  RH  084%=      5-min Rain = 0
KVA1 231027Z 04011KT 14/11 A3001 RMK A01 T01350109  RH  084%=      5-min Rain = 0
KVA1 231028Z 04011KT 14/11 A3001 RMK A01 T01350109  RH  084%=      5-min Rain = 0
KVA1 231029Z 04010KT 14/11 A3001 RMK A01 T01350110  RH  084%=      5-min Rain = 0
KVA1 231030Z 04011KT 14/11 A3001 RMK A01 T01350109  RH  084%=      5-min Rain = 0
KVA1 231031Z 04011KT 14/11 A3001 RMK A01 T01350109  RH  084%=      5-min Rain = 0
KVA1 231032Z 05008KT 14/11 A3001 RMK A01 T01350110  RH  085%=      5-min Rain = 0
KVA1 231033Z 05008KT 14/11 A3001 RMK A01 T01350109  RH  085%=      5-min Rain = 0
KVA1 231034Z 05008KT 14/11 A3001 RMK A01 T01350109  RH  085%=      5-min Rain = 0
KVA1 231035Z 05009KT 13/11 A3001 RMK A01 T01340109  RH  085%=      5-min Rain = 0
KVA1 231036Z 05008KT 13/11 A3001 RMK A01 T01340109  RH  085%=      5-min Rain = 0
KVA1 231037Z 05008KT 13/11 A3001 RMK A01 T01340109  RH  085%=      5-min Rain = 0
KVA1 231038Z 05009KT 13/11 A3001 RMK A01 T01330109  RH  085%=      5-min Rain = 0
KVA1 231039Z 05009KT 13/11 A3001 RMK A01 T01330109  RH  085%=      5-min Rain = 0
KVA1 231040Z 05009KT 13/11 A3001 RMK A01 T01330109  RH  085%=      5-min Rain = 0
KVA1 231041Z 05009KT 13/11 A3001 RMK A01 T01330109  RH  086%=      5-min Rain = 0
KVA1 231042Z 04010KT 13/11 A3001 RMK A01 T01320109  RH  086%=      5-min Rain = 0
KVA1 231043Z 04010KT 13/11 A3001 RMK A01 T01320109  RH  086%=      5-min Rain = 0
KVA1 231044Z 04010KT 13/11 A3001 RMK A01 T01320109  RH  086%=      5-min Rain = 0
KVA1 231045Z 04009KT 13/11 A3001 RMK A01 T01320109  RH  086%=      5-min Rain = 0
KVA1 231046Z 04010KT 13/11 A3001 RMK A01 T01310109  RH  086%=      5-min Rain = 0
KVA1 231047Z 04009KT 13/11 A3001 RMK A01 T01310109  RH  086%=      5-min Rain = 0
KVA1 231048Z 04008KT 13/11 A3001 RMK A01 T01310109  RH  087%=      5-min Rain = 0
KVA1 231049Z 04009KT 13/11 A3001 RMK A01 T01300108  RH  087%=      5-min Rain = 0
KVA1 231050Z 03007KT 13/11 A3001 RMK A01 T01300108  RH  087%=      5-min Rain = 0
KVA1 231051Z 04008KT 13/11 A3001 RMK A01 T01290108  RH  087%=      5-min Rain = 0
KVA1 231052Z 04007KT 13/11 A3001 RMK A01 T01290108  RH  087%=      5-min Rain = 0
KVA1 231053Z 04008KT 13/11 A3001 RMK A01 T01290108  RH  087%=      5-min Rain = 0
KVA1 231054Z 04008KT 13/11 A3001 RMK A01 T01290108  RH  087%=      5-min Rain = 0
KVA1 231055Z 04008KT 13/11 A3001 RMK A01 T01290107  RH  087%=      5-min Rain = 0
KVA1 231056Z 04008KT 13/11 A3001 RMK A01 T01290107  RH  086%=      5-min Rain = 0
KVA1 231057Z 04008KT 13/11 A3001 RMK A01 T01290106  RH  086%=      5-min Rain = 0
KVA1 231058Z 04008KT 13/11 A3001 RMK A01 T01300106  RH  085%=      5-min Rain = 0
KVA1 231059Z 03008KT 13/11 A3001 RMK A01 T01310106  RH  085%=      5-min Rain = 0
KVA1 231100Z 03009KT 13/11 A3001 RMK A01 T01310106  RH  084%=      5-min Rain = 0
KVA1 231101Z 03007KT 13/11 A3001 RMK A01 T01310105  RH  084%=      5-min Rain = 0
KVA1 231102Z 04006KT 13/11 A3002 RMK A01 T01310105  RH  084%=      5-min Rain = 0
KVA1 231103Z 03006KT 13/11 A3002 RMK A01 T01320105  RH  084%=      5-min Rain = 0
KVA1 231104Z 03007KT 13/11 A3002 RMK A01 T01320105  RH  084%=      5-min Rain = 0
KVA1 231105Z 02006KT 13/11 A3002 RMK A01 T01320105  RH  084%=      5-min Rain = 0
KVA1 231106Z 02006KT 13/11 A3002 RMK A01 T01320105  RH  084%=      5-min Rain = 0
KVA1 231107Z 02007KT 13/11 A3002 RMK A01 T01320105  RH  084%=      5-min Rain = 0
KVA1 231108Z 02007KT 13/11 A3002 RMK A01 T01320105  RH  083%=      5-min Rain = 0
KVA1 231109Z 02006KT 13/11 A3002 RMK A01 T01330105  RH  083%=      5-min Rain = 0
KVA1 231110Z 02007KT 13/11 A3002 RMK A01 T01330105  RH  083%=      5-min Rain = 0
KVA1 231111Z 02007KT 13/11 A3002 RMK A01 T01330105  RH  083%=      5-min Rain = 0
KVA1 231112Z 02007G12KT 13/11 A3002 RMK A01 T01330105  RH  083%=      5-min Rain = 0
KVA1 231113Z 03010KT 13/11 A3002 RMK A01 T01330105  RH  083%=      5-min Rain = 0
KVA1 231114Z 02008KT 14/11 A3002 RMK A01 T01350105  RH  082%=      5-min Rain = 0
KVA1 231115Z 03008KT 14/11 A3002 RMK A01 T01350105  RH  082%=      5-min Rain = 0
KVA1 231116Z 03007KT 14/11 A3002 RMK A01 T01360105  RH  082%=      5-min Rain = 0
KVA1 231117Z 02008KT 14/11 A3002 RMK A01 T01360105  RH  081%=      5-min Rain = 0
KVA1 231118Z 02007KT 14/11 A3002 RMK A01 T01360105  RH  081%=      5-min Rain = 0
KVA1 231119Z 02009KT 14/11 A3002 RMK A01 T01360105  RH  081%=      5-min Rain = 0
KVA1 231120Z 02010KT 14/11 A3002 RMK A01 T01360105  RH  081%=      5-min Rain = 0
KVA1 231121Z 02011KT 14/11 A3002 RMK A01 T01360105  RH  081%=      5-min Rain = 0
KVA1 231122Z 01010KT 14/10 A3002 RMK A01 T01360104  RH  081%=      5-min Rain = 0
KVA1 231123Z 02009KT 14/10 A3002 RMK A01 T01360104  RH  081%=      5-min Rain = 0
KVA1 231124Z 02009KT 14/10 A3002 RMK A01 T01360104  RH  081%=      5-min Rain = 0
KVA1 231125Z 02008KT 14/10 A3002 RMK A01 T01350104  RH  081%=      5-min Rain = 0
KVA1 231126Z 02009KT 14/10 A3002 RMK A01 T01350104  RH  081%=      5-min Rain = 0
KVA1 231127Z 02009KT 14/10 A3002 RMK A01 T01350104  RH  081%=      5-min Rain = 0
KVA1 231128Z 02012KT 14/10 A3002 RMK A01 T01350104  RH  082%=      5-min Rain = 0
KVA1 231129Z 02010KT 14/10 A3002 RMK A01 T01350104  RH  082%=      5-min Rain = 0
KVA1 231130Z 03008KT 14/10 A3002 RMK A01 T01350104  RH  082%=      5-min Rain = 0
KVA1 231131Z 03009KT 14/10 A3002 RMK A01 T01350104  RH  082%=      5-min Rain = 0
KVA1 231132Z 03010KT 14/10 A3002 RMK A01 T01350104  RH  082%=      5-min Rain = 0
KVA1 231133Z 03009KT 14/11 A3002 RMK A01 T01350105  RH  082%=      5-min Rain = 0
KVA1 231134Z 03009KT 14/11 A3002 RMK A01 T01360105  RH  082%=      5-min Rain = 0
KVA1 231135Z 03008KT 14/11 A3002 RMK A01 T01350105  RH  082%=      5-min Rain = 0
KVA1 231136Z 03007KT 14/11 A3002 RMK A01 T01360105  RH  082%=      5-min Rain = 0
KVA1 231137Z 02008KT 14/11 A3002 RMK A01 T01360105  RH  081%=      5-min Rain = 0
KVA1 231138Z 02009KT 14/11 A3002 RMK A01 T01360105  RH  081%=      5-min Rain = 0
KVA1 231139Z 03009KT 14/11 A3002 RMK A01 T01360105  RH  082%=      5-min Rain = 0
KVA1 231140Z 03009KT 14/11 A3002 RMK A01 T01360105  RH  082%=      5-min Rain = 0
KVA1 231141Z 02008KT 14/11 A3002 RMK A01 T01360105  RH  082%=      5-min Rain = 0
KVA1 231142Z 02008KT 14/11 A3002 RMK A01 T01360105  RH  082%=      5-min Rain = 0
KVA1 231143Z 02010KT 14/11 A3002 RMK A01 T01360105  RH  082%=      5-min Rain = 0
KVA1 231144Z 03011KT 14/11 A3002 RMK A01 T01370106  RH  082%=      5-min Rain = 0
KVA1 231145Z 03011KT 14/11 A3002 RMK A01 T01360106  RH  082%=      5-min Rain = 0
KVA1 231146Z 03011KT 14/11 A3002 RMK A01 T01370106  RH  082%=      5-min Rain = 0
KVA1 231147Z 03010KT 14/11 A3002 RMK A01 T01370106  RH  082%=      5-min Rain = 0
KVA1 231148Z 03014KT 14/11 A3002 RMK A01 T01370106  RH  082%=      5-min Rain = 0
KVA1 231149Z 03011KT 14/11 A3002 RMK A01 T01370106  RH  082%=      5-min Rain = 0
KVA1 231150Z 03012KT 14/11 A3002 RMK A01 T01370107  RH  082%=      5-min Rain = 0
KVA1 231151Z 02012KT 14/11 A3002 RMK A01 T01370107  RH  082%=      5-min Rain = 0
KVA1 231152Z 03012KT 14/11 A3002 RMK A01 T01370107  RH  082%=      5-min Rain = 0
KVA1 231153Z 02010KT 14/11 A3002 RMK A01 T01370107  RH  082%=      5-min Rain = 0
KVA1 231154Z 02010KT 14/11 A3003 RMK A01 T01370107  RH  082%=      5-min Rain = 0
KVA1 231155Z 03011KT 14/11 A3003 RMK A01 T01370107  RH  082%=      5-min Rain = 0
KVA1 231156Z 02010KT 14/11 A3003 RMK A01 T01370107  RH  082%=      5-min Rain = 0
KVA1 231157Z 03012KT 14/11 A3003 RMK A01 T01360107  RH  082%=      5-min Rain = 0
KVA1 231158Z 03010KT 14/11 A3003 RMK A01 T01360107  RH  083%=      5-min Rain = 0
KVA1 231159Z 03011KT 14/11 A3003 RMK A01 T01360107  RH  083%=      5-min Rain = 0
KVA1 231200Z 03012KT 14/11 A3003 RMK A01 T01370107  RH  083%=      5-min Rain = 0
KVA1 231201Z 02011KT 14/11 A3003 RMK A01 T01360107  RH  083%=      5-min Rain = 0
KVA1 231202Z 03010KT 14/11 A3003 RMK A01 T01370107  RH  083%=      5-min Rain = 0
KVA1 231203Z 04009KT 14/11 A3003 RMK A01 T01370107  RH  082%=      5-min Rain = 0
KVA1 231204Z 03011KT 14/11 A3003 RMK A01 T01360107  RH  082%=      5-min Rain = 0
KVA1 231205Z 04011KT 14/11 A3003 RMK A01 T01370107  RH  082%=      5-min Rain = 0
KVA1 231206Z 03009KT 14/11 A3003 RMK A01 T01370108  RH  082%=      5-min Rain = 0
KVA1 231207Z 03010KT 14/11 A3003 RMK A01 T01370107  RH  082%=      5-min Rain = 0
KVA1 231208Z 03012KT 14/11 A3003 RMK A01 T01370107  RH  082%=      5-min Rain = 0
KVA1 231209Z 03012KT 14/11 A3003 RMK A01 T01370107  RH  082%=      5-min Rain = 0
KVA1 231210Z 04012KT 14/11 A3003 RMK A01 T01370108  RH  083%=      5-min Rain = 0
KVA1 231211Z 03013KT 14/11 A3003 RMK A01 T01370108  RH  082%=      5-min Rain = 0
KVA1 231212Z 04012KT 14/11 A3003 RMK A01 T01370107  RH  082%=      5-min Rain = 0
KVA1 231213Z 04012KT 14/11 A3003 RMK A01 T01370107  RH  082%=      5-min Rain = 0
KVA1 231214Z 04013KT 14/11 A3003 RMK A01 T01370107  RH  082%=      5-min Rain = 0
KVA1 231215Z 04011KT 14/11 A3003 RMK A01 T01370107  RH  082%=      5-min Rain = 0
KVA1 231216Z 04012KT 14/11 A3003 RMK A01 T01370108  RH  082%=      5-min Rain = 0
KVA1 231217Z 03012KT 14/11 A3004 RMK A01 T01370108  RH  082%=      5-min Rain = 0
KVA1 231218Z 04011KT 14/11 A3003 RMK A01 T01370108  RH  082%=      5-min Rain = 0
KVA1 231219Z 04011KT 14/11 A3004 RMK A01 T01370107  RH  082%=      5-min Rain = 0
KVA1 231220Z 03011KT 14/11 A3004 RMK A01 T01360107  RH  082%=      5-min Rain = 0
KVA1 231221Z 04011KT 14/11 A3004 RMK A01 T01360107  RH  082%=      5-min Rain = 0
KVA1 231222Z 04013KT 14/11 A3004 RMK A01 T01370107  RH  082%=      5-min Rain = 0
KVA1 231223Z 03011KT 14/11 A3004 RMK A01 T01360107  RH  083%=      5-min Rain = 0
KVA1 231224Z 03009KT 14/11 A3004 RMK A01 T01360107  RH  083%=      5-min Rain = 0
KVA1 231225Z 04010KT 14/11 A3004 RMK A01 T01360107  RH  083%=      5-min Rain = 0
KVA1 231226Z 03011KT 14/11 A3004 RMK A01 T01360107  RH  082%=      5-min Rain = 0
KVA1 231227Z 03011KT 14/11 A3004 RMK A01 T01360106  RH  082%=      5-min Rain = 0
KVA1 231228Z 03010KT 14/11 A3004 RMK A01 T01360106  RH  082%=      5-min Rain = 0
KVA1 231229Z 03011KT 14/11 A3004 RMK A01 T01360107  RH  082%=      5-min Rain = 0
KVA1 231230Z 03009KT 14/11 A3004 RMK A01 T01360107  RH  082%=      5-min Rain = 0
KVA1 231231Z 03011KT 14/11 A3004 RMK A01 T01360107  RH  082%=      5-min Rain = 0
KVA1 231232Z 03011KT 14/11 A3004 RMK A01 T01360107  RH  082%=      5-min Rain = 0
KVA1 231233Z 03009KT 14/11 A3004 RMK A01 T01360106  RH  082%=      5-min Rain = 0
KVA1 231234Z 03010KT 14/11 A3004 RMK A01 T01370106  RH  082%=      5-min Rain = 0
KVA1 231235Z 03009KT 14/11 A3004 RMK A01 T01370106  RH  081%=      5-min Rain = 0
KVA1 231236Z 03012KT 14/11 A3004 RMK A01 T01370105  RH  081%=      5-min Rain = 0
KVA1 231237Z 03011KT 14/10 A3004 RMK A01 T01370104  RH  081%=      5-min Rain = 0
KVA1 231238Z 03011KT 14/10 A3004 RMK A01 T01380104  RH  080%=      5-min Rain = 0
KVA1 231239Z 04009KT 14/11 A3004 RMK A01 T01380105  RH  080%=      5-min Rain = 0
KVA1 231240Z 04010KT 14/11 A3004 RMK A01 T01380105  RH  080%=      5-min Rain = 0
KVA1 231241Z 04011KT 14/11 A3004 RMK A01 T01380105  RH  080%=      5-min Rain = 0
KVA1 231242Z 04009KT 14/11 A3004 RMK A01 T01380105  RH  080%=      5-min Rain = 0
KVA1 231243Z 04009KT 14/11 A3004 RMK A01 T01380105  RH  080%=      5-min Rain = 0
KVA1 231244Z 03009KT 14/11 A3005 RMK A01 T01380105  RH  080%=      5-min Rain = 0
KVA1 231245Z 04008KT 14/10 A3005 RMK A01 T01380104  RH  080%=      5-min Rain = 0
KVA1 231246Z 04010KT 14/10 A3005 RMK A01 T01380104  RH  080%=      5-min Rain = 0
KVA1 231247Z 04009KT 14/10 A3005 RMK A01 T01380104  RH  080%=      5-min Rain = 0
KVA1 231248Z 04011KT 14/10 A3005 RMK A01 T01380104  RH  080%=      5-min Rain = 0
KVA1 231249Z 05008KT 14/10 A3005 RMK A01 T01380104  RH  080%=      5-min Rain = 0
KVA1 231250Z 05009KT 14/10 A3005 RMK A01 T01380104  RH  080%=      5-min Rain = 0
KVA1 231251Z 05010KT 14/10 A3005 RMK A01 T01380104  RH  080%=      5-min Rain = 0
KVA1 231252Z 06009KT 14/10 A3005 RMK A01 T01380104  RH  080%=      5-min Rain = 0
KVA1 231253Z 05008KT 14/10 A3005 RMK A01 T01380104  RH  080%=      5-min Rain = 0
KVA1 231254Z 04009KT 14/10 A3005 RMK A01 T01380104  RH  080%=      5-min Rain = 0
KVA1 231255Z 05008KT 14/10 A3005 RMK A01 T01370103  RH  080%=      5-min Rain = 0
KVA1 231256Z 05008KT 14/10 A3005 RMK A01 T01370103  RH  080%=      5-min Rain = 0
KVA1 231257Z 05009KT 14/10 A3005 RMK A01 T01370103  RH  079%=      5-min Rain = 0
KVA1 231258Z 04009KT 14/10 A3005 RMK A01 T01370103  RH  079%=      5-min Rain = 0
KVA1 231259Z 06008KT 14/10 A3005 RMK A01 T01370102  RH  079%=      5-min Rain = 0
KVA1 231300Z 05010KT 14/10 A3005 RMK A01 T01380102  RH  079%=      5-min Rain = 0
KVA1 231301Z 05008KT 14/10 A3005 RMK A01 T01380102  RH  079%=      5-min Rain = 0
KVA1 231302Z 05006KT 14/10 A3005 RMK A01 T01380102  RH  079%=      5-min Rain = 0
KVA1 231303Z 06007KT 14/10 A3005 RMK A01 T01380102  RH  079%=      5-min Rain = 0
KVA1 231304Z 05009KT 14/10 A3005 RMK A01 T01380102  RH  079%=      5-min Rain = 0
KVA1 231305Z 05009KT 14/10 A3005 RMK A01 T01380102  RH  079%=      5-min Rain = 0
KVA1 231306Z 05008KT 14/10 A3005 RMK A01 T01380102  RH  078%=      5-min Rain = 0
KVA1 231307Z 06008KT 14/10 A3005 RMK A01 T01390102  RH  078%=      5-min Rain = 0
KVA1 231308Z 05010KT 14/10 A3005 RMK A01 T01390102  RH  078%=      5-min Rain = 0
KVA1 231309Z 05011KT 14/10 A3005 RMK A01 T01390101  RH  078%=      5-min Rain = 0
KVA1 231310Z 05011KT 14/10 A3005 RMK A01 T01390101  RH  078%=      5-min Rain = 0
KVA1 231311Z 05011KT 14/10 A3005 RMK A01 T01390102  RH  078%=      5-min Rain = 0
KVA1 231312Z 05008KT 14/10 A3005 RMK A01 T01390101  RH  078%=      5-min Rain = 0
KVA1 231313Z 05010KT 14/10 A3005 RMK A01 T01390102  RH  078%=      5-min Rain = 0
KVA1 231314Z 05011KT 14/10 A3006 RMK A01 T01390102  RH  078%=      5-min Rain = 0
KVA1 231315Z 05010KT 14/10 A3006 RMK A01 T01390102  RH  078%=      5-min Rain = 0
KVA1 231316Z 06009KT 14/10 A3006 RMK A01 T01390102  RH  078%=      5-min Rain = 0
KVA1 231317Z 05008KT 14/10 A3006 RMK A01 T01390102  RH  078%=      5-min Rain = 0
KVA1 231318Z 06011KT 14/10 A3006 RMK A01 T01400102  RH  078%=      5-min Rain = 0
KVA1 231319Z 06009KT 14/10 A3006 RMK A01 T01400103  RH  078%=      5-min Rain = 0
KVA1 231320Z 06010KT 14/10 A3006 RMK A01 T01400102  RH  078%=      5-min Rain = 0
KVA1 231321Z 05008KT 14/10 A3006 RMK A01 T01400102  RH  078%=      5-min Rain = 0
KVA1 231322Z 05010KT 14/10 A3006 RMK A01 T01400103  RH  078%=      5-min Rain = 0
KVA1 231323Z 06010KT 14/10 A3006 RMK A01 T01400103  RH  078%=      5-min Rain = 0
KVA1 231324Z 05008KT 14/10 A3006 RMK A01 T01400103  RH  078%=      5-min Rain = 0
KVA1 231325Z 06010KT 14/10 A3006 RMK A01 T01400103  RH  078%=      5-min Rain = 0
KVA1 231326Z 05009KT 14/10 A3006 RMK A01 T01410103  RH  078%=      5-min Rain = 0
KVA1 231327Z 05008KT 14/10 A3006 RMK A01 T01410103  RH  078%=      5-min Rain = 0
KVA1 231328Z 05009KT 14/10 A3006 RMK A01 T01410103  RH  078%=      5-min Rain = 0
KVA1 231329Z 06008KT 14/10 A3006 RMK A01 T01410103  RH  078%=      5-min Rain = 0
KVA1 231330Z 05010KT 14/10 A3006 RMK A01 T01410103  RH  078%=      5-min Rain = 0
KVA1 231331Z 05010KT 14/10 A3006 RMK A01 T01410103  RH  078%=      5-min Rain = 0
KVA1 231332Z 05010KT 14/10 A3006 RMK A01 T01410103  RH  078%=      5-min Rain = 0
KVA1 231333Z 05010KT 14/10 A3006 RMK A01 T01420104  RH  078%=      5-min Rain = 0
KVA1 231334Z 05009KT 14/10 A3006 RMK A01 T01420104  RH  078%=      5-min Rain = 0
KVA1 231335Z 05010KT 14/10 A3006 RMK A01 T01420104  RH  078%=      5-min Rain = 0
KVA1 231336Z 06008KT 14/10 A3006 RMK A01 T01420103  RH  077%=      5-min Rain = 0
KVA1 231337Z 06009KT 14/10 A3006 RMK A01 T01420103  RH  077%=      5-min Rain = 0
KVA1 231338Z 05009KT 14/10 A3006 RMK A01 T01420103  RH  077%=      5-min Rain = 0
KVA1 231339Z 05008KT 14/10 A3006 RMK A01 T01430103  RH  077%=      5-min Rain = 0
KVA1 231340Z 05010KT 14/10 A3006 RMK A01 T01430103  RH  077%=      5-min Rain = 0
KVA1 231341Z 05010KT 14/10 A3006 RMK A01 T01430103  RH  076%=      5-min Rain = 0
KVA1 231342Z 05010KT 14/10 A3006 RMK A01 T01430103  RH  076%=      5-min Rain = 0
KVA1 231343Z 05011KT 14/10 A3006 RMK A01 T01430102  RH  076%=      5-min Rain = 0
KVA1 231344Z 04012KT 14/10 A3006 RMK A01 T01430101  RH  076%=      5-min Rain = 0
KVA1 231345Z 04012KT 14/10 A3006 RMK A01 T01430101  RH  076%=      5-min Rain = 0
KVA1 231346Z 05011KT 14/10 A3006 RMK A01 T01430101  RH  076%=      5-min Rain = 0
KVA1 231347Z 05010KT 14/10 A3006 RMK A01 T01430100  RH  076%=      5-min Rain = 0
KVA1 231348Z 05010KT 14/10 A3007 RMK A01 T01430100  RH  075%=      5-min Rain = 0
KVA1 231349Z 05009KT 14/10 A3007 RMK A01 T01430100  RH  075%=      5-min Rain = 0
KVA1 231350Z 04011KT 14/10 A3007 RMK A01 T01440100  RH  075%=      5-min Rain = 0
KVA1 231351Z 05011KT 14/10 A3007 RMK A01 T01440100  RH  075%=      5-min Rain = 0
KVA1 231352Z 04009KT 14/10 A3007 RMK A01 T01440100  RH  075%=      5-min Rain = 0
KVA1 231353Z 04011KT 14/10 A3007 RMK A01 T01440100  RH  074%=      5-min Rain = 0
KVA1 231354Z 04011KT 15/10 A3007 RMK A01 T01450100  RH  074%=      5-min Rain = 0
KVA1 231355Z 04011KT 15/10 A3007 RMK A01 T01450100  RH  074%=      5-min Rain = 0
KVA1 231356Z 04010KT 15/10 A3007 RMK A01 T01450100  RH  074%=      5-min Rain = 0
KVA1 231357Z 04009KT 15/10 A3007 RMK A01 T01450100  RH  074%=      5-min Rain = 0
KVA1 231358Z 04010KT 15/10 A3007 RMK A01 T01460099  RH  074%=      5-min Rain = 0
KVA1 231359Z 04011KT 15/10 A3007 RMK A01 T01460099  RH  073%=      5-min Rain = 0
KVA1 231400Z 04013KT 15/10 A3007 RMK A01 T01460099  RH  073%=      5-min Rain = 0
KVA1 231401Z 03011KT 15/10 A3007 RMK A01 T01450098  RH  073%=      5-min Rain = 0
KVA1 231402Z 05010KT 15/10 A3007 RMK A01 T01460099  RH  073%=      5-min Rain = 0
KVA1 231403Z 04011KT 15/10 A3007 RMK A01 T01460099  RH  073%=      5-min Rain = 0
KVA1 231404Z 04013KT 15/10 A3007 RMK A01 T01460098  RH  073%=      5-min Rain = 0
KVA1 231405Z 05013KT 15/10 A3007 RMK A01 T01460098  RH  073%=      5-min Rain = 0
KVA1 231406Z 05012KT 15/10 A3007 RMK A01 T01460098  RH  073%=      5-min Rain = 0
KVA1 231407Z 05013KT 15/10 A3007 RMK A01 T01460098  RH  073%=      5-min Rain = 0
KVA1 231408Z 05014KT 15/10 A3007 RMK A01 T01450097  RH  073%=      5-min Rain = 0
KVA1 231409Z 04014KT 15/10 A3007 RMK A01 T01450097  RH  073%=      5-min Rain = 0
KVA1 231410Z 04014KT 15/10 A3007 RMK A01 T01450097  RH  073%=      5-min Rain = 0
KVA1 231411Z 03014KT 15/10 A3007 RMK A01 T01450097  RH  073%=      5-min Rain = 0
KVA1 231412Z 04011KT 15/10 A3007 RMK A01 T01450097  RH  073%=      5-min Rain = 0
KVA1 231413Z 05011KT 15/10 A3007 RMK A01 T01460098  RH  073%=      5-min Rain = 0
KVA1 231414Z 04009KT 15/10 A3007 RMK A01 T01470098  RH  072%=      5-min Rain = 0
KVA1 231415Z 05011KT 15/10 A3007 RMK A01 T01470098  RH  072%=      5-min Rain = 0
KVA1 231416Z 05011KT 15/10 A3007 RMK A01 T01480098  RH  072%=      5-min Rain = 0
KVA1 231417Z 05012KT 15/10 A3007 RMK A01 T01480098  RH  072%=      5-min Rain = 0
KVA1 231418Z 05013KT 15/10 A3007 RMK A01 T01480099  RH  072%=      5-min Rain = 0
KVA1 231419Z 05013KT 15/10 A3007 RMK A01 T01480098  RH  072%=      5-min Rain = 0
KVA1 231420Z 06013KT 15/10 A3007 RMK A01 T01470098  RH  072%=      5-min Rain = 0
KVA1 231421Z 05011KT 15/10 A3007 RMK A01 T01470098  RH  073%=      5-min Rain = 0
KVA1 231422Z 06012KT 15/10 A3007 RMK A01 T01480099  RH  072%=      5-min Rain = 0
KVA1 231423Z 06012KT 15/10 A3007 RMK A01 T01480098  RH  072%=      5-min Rain = 0
KVA1 231424Z 05015KT 15/10 A3007 RMK A01 T01480097  RH  072%=      5-min Rain = 0
KVA1 231425Z 05013KT 15/10 A3007 RMK A01 T01480097  RH  071%=      5-min Rain = 0
KVA1 231426Z 05011KT 15/10 A3007 RMK A01 T01480097  RH  072%=      5-min Rain = 0
KVA1 231427Z 05012KT 15/10 A3007 RMK A01 T01490098  RH  072%=      5-min Rain = 0
KVA1 231428Z 06011KT 15/10 A3007 RMK A01 T01490098  RH  071%=      5-min Rain = 0
KVA1 231429Z 06013KT 15/10 A3007 RMK A01 T01490098  RH  072%=      5-min Rain = 0
KVA1 231430Z 06013KT 15/10 A3007 RMK A01 T01490098  RH  071%=      5-min Rain = 0
KVA1 231431Z 06014KT 15/10 A3007 RMK A01 T01490098  RH  072%=      5-min Rain = 0
KVA1 231432Z 05012KT 15/10 A3007 RMK A01 T01490098  RH  072%=      5-min Rain = 0
KVA1 231433Z 06012KT 15/10 A3007 RMK A01 T01480098  RH  072%=      5-min Rain = 0
KVA1 231434Z 06012KT 15/10 A3007 RMK A01 T01480098  RH  072%=      5-min Rain = 0
KVA1 231435Z 07011KT 15/10 A3007 RMK A01 T01480099  RH  072%=      5-min Rain = 0
KVA1 231436Z 06009KT 15/10 A3007 RMK A01 T01480099  RH  072%=      5-min Rain = 0
KVA1 231437Z 07008KT 15/10 A3007 RMK A01 T01480099  RH  072%=      5-min Rain = 0
KVA1 231438Z 06011KT 15/10 A3007 RMK A01 T01500099  RH  072%=      5-min Rain = 0
KVA1 231439Z 05012KT 15/10 A3007 RMK A01 T01500099  RH  071%=      5-min Rain = 0
KVA1 231440Z 06009KT 15/10 A3007 RMK A01 T01490099  RH  072%=      5-min Rain = 0
KVA1 231441Z 05007KT 15/10 A3008 RMK A01 T01490099  RH  072%=      5-min Rain = 0
KVA1 231442Z 06009KT 15/10 A3008 RMK A01 T01510100  RH  072%=      5-min Rain = 0
KVA1 231443Z 06009KT 15/10 A3008 RMK A01 T01520100  RH  071%=      5-min Rain = 0
KVA1 231444Z 05009KT 15/10 A3008 RMK A01 T01520101  RH  071%=      5-min Rain = 0
KVA1 231445Z 05012KT 15/10 A3008 RMK A01 T01530100  RH  071%=      5-min Rain = 0
KVA1 231446Z 04015KT 15/10 A3008 RMK A01 T01520098  RH  070%=      5-min Rain = 0
KVA1 231447Z 04012KT 15/10 A3008 RMK A01 T01510098  RH  070%=      5-min Rain = 0
KVA1 231448Z 04014KT 15/10 A3008 RMK A01 T01510098  RH  071%=      5-min Rain = 0
KVA1 231449Z 05013KT 15/10 A3008 RMK A01 T01500098  RH  071%=      5-min Rain = 0
KVA1 231450Z 05013KT 15/10 A3008 RMK A01 T01500098  RH  071%=      5-min Rain = 0
KVA1 231451Z 05013KT 15/10 A3008 RMK A01 T01490098  RH  071%=      5-min Rain = 0
KVA1 231452Z 06013KT 15/10 A3008 RMK A01 T01490098  RH  071%=      5-min Rain = 0
KVA1 231453Z 05012KT 15/10 A3008 RMK A01 T01490098  RH  072%=      5-min Rain = 0
KVA1 231454Z 05013KT 15/10 A3008 RMK A01 T01490098  RH  071%=      5-min Rain = 0
KVA1 231455Z 05011KT 15/10 A3008 RMK A01 T01490098  RH  072%=      5-min Rain = 0
KVA1 231456Z 04011KT 15/10 A3008 RMK A01 T01490098  RH  071%=      5-min Rain = 0
KVA1 231457Z 05011KT 15/10 A3008 RMK A01 T01500098  RH  071%=      5-min Rain = 0
KVA1 231458Z 05011KT 15/10 A3008 RMK A01 T01500098  RH  071%=      5-min Rain = 0
KVA1 231459Z 04009KT 15/10 A3008 RMK A01 T01500099  RH  071%=      5-min Rain = 0
KVA1 231500Z 05008KT 15/10 A3008 RMK A01 T01510100  RH  071%=      5-min Rain = 0
KVA1 231501Z 05007KT 15/10 A3008 RMK A01 T01530100  RH  070%=      5-min Rain = 0
KVA1 231502Z 05010KT 16/10 A3008 RMK A01 T01550100  RH  070%=      5-min Rain = 0
KVA1 231503Z 05013KT 16/10 A3008 RMK A01 T01560100  RH  069%=      5-min Rain = 0
KVA1 231504Z 07011KT 16/10 A3008 RMK A01 T01550100  RH  070%=      5-min Rain = 0
KVA1 231505Z 06012KT 16/10 A3008 RMK A01 T01550101  RH  070%=      5-min Rain = 0
KVA1 231506Z 06012KT 15/10 A3008 RMK A01 T01540100  RH  070%=      5-min Rain = 0
KVA1 231507Z 05011KT 15/10 A3008 RMK A01 T01540101  RH  070%=      5-min Rain = 0
KVA1 231508Z 05013KT 16/10 A3008 RMK A01 T01560101  RH  070%=      5-min Rain = 0
KVA1 231509Z 05014KT 16/10 A3008 RMK A01 T01580100  RH  069%=      5-min Rain = 0
KVA1 231510Z 05010KT 16/10 A3008 RMK A01 T01560099  RH  069%=      5-min Rain = 0
KVA1 231511Z 05010KT 16/10 A3008 RMK A01 T01560099  RH  069%=      5-min Rain = 0
KVA1 231512Z 05012KT 16/10 A3008 RMK A01 T01580099  RH  068%=      5-min Rain = 0
KVA1 231513Z 05013KT 16/10 A3008 RMK A01 T01580100  RH  068%=      5-min Rain = 0
KVA1 231514Z 05014KT 16/10 A3008 RMK A01 T01570099  RH  068%=      5-min Rain = 0
KVA1 231515Z 05012KT 16/10 A3008 RMK A01 T01560099  RH  069%=      5-min Rain = 0
KVA1 231516Z 05013KT 16/10 A3008 RMK A01 T01550098  RH  069%=      5-min Rain = 0
KVA1 231517Z 05014KT 16/10 A3008 RMK A01 T01550099  RH  069%=      5-min Rain = 0
KVA1 231518Z 05012KT 16/10 A3008 RMK A01 T01550099  RH  069%=      5-min Rain = 0
KVA1 231519Z 05013KT 16/10 A3008 RMK A01 T01560099  RH  069%=      5-min Rain = 0
KVA1 231520Z 05015KT 16/10 A3008 RMK A01 T01570099  RH  069%=      5-min Rain = 0
KVA1 231521Z 05014KT 16/10 A3008 RMK A01 T01550099  RH  069%=      5-min Rain = 0
KVA1 231522Z 05012KT 15/10 A3008 RMK A01 T01530098  RH  070%=      5-min Rain = 0
KVA1 231523Z 04011KT 15/10 A3008 RMK A01 T01530099  RH  070%=      5-min Rain = 0
KVA1 231524Z 05011KT 15/10 A3008 RMK A01 T01540099  RH  069%=      5-min Rain = 0
KVA1 231525Z 05010KT 16/10 A3008 RMK A01 T01560099  RH  069%=      5-min Rain = 0
KVA1 231526Z 04013KT 16/10 A3008 RMK A01 T01570099  RH  069%=      5-min Rain = 0
KVA1 231527Z 05014KT 16/10 A3008 RMK A01 T01570099  RH  068%=      5-min Rain = 0
KVA1 231528Z 05013KT 15/10 A3008 RMK A01 T01540098  RH  069%=      5-min Rain = 0
KVA1 231529Z 04014KT 15/10 A3008 RMK A01 T01530098  RH  070%=      5-min Rain = 0
KVA1 231530Z 05012KT 15/10 A3008 RMK A01 T01530098  RH  070%=      5-min Rain = 0
KVA1 231531Z 05010KT 15/10 A3008 RMK A01 T01530098  RH  070%=      5-min Rain = 0
KVA1 231532Z 06012G17KT 15/10 A3008 RMK A01 T01540099  RH  069%=      5-min Rain = 0
KVA1 231533Z 06014KT 16/10 A3008 RMK A01 T01560097  RH  068%=      5-min Rain = 0
KVA1 231534Z 06014KT 16/10 A3008 RMK A01 T01550097  RH  068%=      5-min Rain = 0
KVA1 231535Z 05014KT 16/10 A3008 RMK A01 T01550097  RH  068%=      5-min Rain = 0
KVA1 231536Z 05012KT 15/10 A3009 RMK A01 T01540096  RH  068%=      5-min Rain = 0
KVA1 231537Z 06011KT 16/10 A3008 RMK A01 T01550097  RH  068%=      5-min Rain = 0
KVA1 231538Z 06014G20KT 16/10 A3008 RMK A01 T01560097  RH  068%=      5-min Rain = 0
KVA1 231539Z 06017KT 16/10 A3009 RMK A01 T01570098  RH  068%=      5-min Rain = 0
KVA1 231540Z 06015KT 16/10 A3009 RMK A01 T01550096  RH  068%=      5-min Rain = 0
KVA1 231541Z 06013KT 15/10 A3009 RMK A01 T01530096  RH  069%=      5-min Rain = 0
KVA1 231542Z 06014KT 15/10 A3009 RMK A01 T01540097  RH  069%=      5-min Rain = 0
KVA1 231543Z 06013KT 16/10 A3008 RMK A01 T01550097  RH  068%=      5-min Rain = 0
KVA1 231544Z 06012KT 16/10 A3009 RMK A01 T01550098  RH  068%=      5-min Rain = 0
KVA1 231545Z 06013KT 16/10 A3008 RMK A01 T01570098  RH  068%=      5-min Rain = 0
KVA1 231546Z 06015KT 16/10 A3009 RMK A01 T01580098  RH  067%=      5-min Rain = 0
KVA1 231547Z 05012KT 16/10 A3009 RMK A01 T01570098  RH  068%=      5-min Rain = 0
KVA1 231548Z 06013KT 16/10 A3009 RMK A01 T01560098  RH  068%=      5-min Rain = 0
KVA1 231549Z 05013KT 16/10 A3009 RMK A01 T01570098  RH  068%=      5-min Rain = 0
KVA1 231550Z 06013KT 16/10 A3009 RMK A01 T01560098  RH  068%=      5-min Rain = 0
KVA1 231551Z 06012KT 16/10 A3009 RMK A01 T01560098  RH  068%=      5-min Rain = 0
KVA1 231552Z 06014KT 16/10 A3009 RMK A01 T01560098  RH  069%=      5-min Rain = 0
KVA1 231553Z 06015KT 16/10 A3009 RMK A01 T01550098  RH  069%=      5-min Rain = 0
KVA1 231554Z 05014KT 15/10 A3009 RMK A01 T01540097  RH  069%=      5-min Rain = 0
KVA1 231555Z 06013KT 15/10 A3009 RMK A01 T01540098  RH  069%=      5-min Rain = 0
KVA1 231556Z 05013KT 15/10 A3009 RMK A01 T01530098  RH  069%=      5-min Rain = 0
KVA1 231557Z 05014KT 15/10 A3009 RMK A01 T01530097  RH  069%=      5-min Rain = 0
KVA1 231558Z 05013KT 16/10 A3009 RMK A01 T01550098  RH  069%=      5-min Rain = 0
KVA1 231559Z 05016KT 16/10 A3009 RMK A01 T01570098  RH  068%=      5-min Rain = 0
KVA1 231600Z 05014KT 16/10 A3009 RMK A01 T01560098  RH  068%=      5-min Rain = 0
KVA1 231601Z 05011KT 16/10 A3009 RMK A01 T01550098  RH  068%=      5-min Rain = 0
KVA1 231602Z 05012KT 16/10 A3009 RMK A01 T01560098  RH  068%=      5-min Rain = 0
KVA1 231603Z 05012KT 16/10 A3009 RMK A01 T01580099  RH  068%=      5-min Rain = 0
KVA1 231604Z 05015KT 16/10 A3009 RMK A01 T01600098  RH  067%=      5-min Rain = 0
KVA1 231605Z 04014KT 16/10 A3009 RMK A01 T01600097  RH  066%=      5-min Rain = 0
KVA1 231606Z 04012KT 16/10 A3009 RMK A01 T01600099  RH  067%=      5-min Rain = 0
KVA1 231607Z 07010KT 16/10 A3009 RMK A01 T01620100  RH  066%=      5-min Rain = 0
KVA1 231608Z 05012KT 17/10 A3009 RMK A01 T01650100  RH  065%=      5-min Rain = 0
KVA1 231609Z 06011KT 17/10 A3009 RMK A01 T01650100  RH  065%=      5-min Rain = 0
KVA1 231610Z 06012KT 16/10 A3009 RMK A01 T01630100  RH  066%=      5-min Rain = 0
KVA1 231611Z 05012KT 16/10 A3009 RMK A01 T01610100  RH  067%=      5-min Rain = 0
KVA1 231612Z 04014KT 16/10 A3009 RMK A01 T01610099  RH  067%=      5-min Rain = 0
KVA1 231613Z 05014KT 16/10 A3009 RMK A01 T01580098  RH  067%=      5-min Rain = 0
KVA1 231614Z 04013KT 16/10 A3009 RMK A01 T01570098  RH  068%=      5-min Rain = 0
KVA1 231615Z 04012KT 16/10 A3009 RMK A01 T01560098  RH  068%=      5-min Rain = 0
KVA1 231616Z 04013KT 16/10 A3009 RMK A01 T01560099  RH  069%=      5-min Rain = 0
KVA1 231617Z 04015KT 16/10 A3009 RMK A01 T01550098  RH  069%=      5-min Rain = 0
KVA1 231618Z 04012KT 15/10 A3009 RMK A01 T01540099  RH  069%=      5-min Rain = 0
KVA1 231619Z 04012KT 16/10 A3009 RMK A01 T01560099  RH  069%=      5-min Rain = 0
KVA1 231620Z 04012KT 16/10 A3009 RMK A01 T01590099  RH  068%=      5-min Rain = 0
KVA1 231621Z 06012KT 16/10 A3009 RMK A01 T01590100  RH  068%=      5-min Rain = 0
KVA1 231622Z 06012KT 16/10 A3009 RMK A01 T01570099  RH  069%=      5-min Rain = 0
KVA1 231623Z 05013KT 16/10 A3009 RMK A01 T01560100  RH  069%=      5-min Rain = 0
KVA1 231624Z 05013KT 16/10 A3009 RMK A01 T01550100  RH  069%=      5-min Rain = 0
KVA1 231625Z 05012KT 16/10 A3009 RMK A01 T01550099  RH  069%=      5-min Rain = 0
KVA1 231626Z 04011KT 16/10 A3009 RMK A01 T01550099  RH  069%=      5-min Rain = 0
KVA1 231627Z 04011KT 16/10 A3009 RMK A01 T01560100  RH  069%=      5-min Rain = 0
KVA1 231628Z 05010KT 16/10 A3009 RMK A01 T01570100  RH  068%=      5-min Rain = 0
KVA1 231629Z 04013KT 16/10 A3009 RMK A01 T01590100  RH  068%=      5-min Rain = 0
KVA1 231630Z 03013KT 16/10 A3009 RMK A01 T01590100  RH  068%=      5-min Rain = 0
KVA1 231631Z 04011KT 16/10 A3009 RMK A01 T01590100  RH  068%=      5-min Rain = 0
KVA1 231632Z 03011KT 16/10 A3009 RMK A01 T01590100  RH  068%=      5-min Rain = 0
KVA1 231633Z 05010KT 16/10 A3009 RMK A01 T01600100  RH  068%=      5-min Rain = 0
KVA1 231634Z 06009KT 16/10 A3009 RMK A01 T01620100  RH  066%=      5-min Rain = 0
KVA1 231635Z 06006KT 16/10 A3009 RMK A01 T01620100  RH  066%=      5-min Rain = 0
KVA1 231636Z 05010KT 16/10 A3009 RMK A01 T01620100  RH  066%=      5-min Rain = 0
KVA1 231637Z 03010KT 16/10 A3009 RMK A01 T01610100  RH  067%=      5-min Rain = 0
KVA1 231638Z 05009G14KT 16/10 A3009 RMK A01 T01600100  RH  067%=      5-min Rain = 0
KVA1 231639Z 04014KT 16/10 A3009 RMK A01 T01600099  RH  067%=      5-min Rain = 0
KVA1 231640Z 04010KT 16/10 A3009 RMK A01 T01580099  RH  068%=      5-min Rain = 0
KVA1 231641Z 05008KT 16/10 A3009 RMK A01 T01580099  RH  068%=      5-min Rain = 0
KVA1 231642Z 04010G16KT 16/10 A3009 RMK A01 T01600099  RH  067%=      5-min Rain = 0
KVA1 231643Z 05012KT 16/10 A3009 RMK A01 T01610099  RH  067%=      5-min Rain = 0
KVA1 231644Z 04011KT 16/10 A3009 RMK A01 T01610099  RH  067%=      5-min Rain = 0
KVA1 231645Z 04012KT 16/10 A3009 RMK A01 T01590099  RH  067%=      5-min Rain = 0
KVA1 231646Z 04011KT 16/10 A3009 RMK A01 T01590100  RH  068%=      5-min Rain = 0
KVA1 231647Z 03009KT 16/10 A3009 RMK A01 T01590100  RH  068%=      5-min Rain = 0
KVA1 231648Z 05010KT 16/10 A3008 RMK A01 T01590100  RH  068%=      5-min Rain = 0
KVA1 231649Z 04012KT 16/10 A3008 RMK A01 T01590099  RH  067%=      5-min Rain = 0
KVA1 231650Z 04011KT 16/10 A3008 RMK A01 T01600099  RH  067%=      5-min Rain = 0
KVA1 231651Z 03011KT 16/10 A3008 RMK A01 T01590100  RH  068%=      5-min Rain = 0
KVA1 231652Z 02011KT 16/10 A3008 RMK A01 T01580100  RH  068%=      5-min Rain = 0
KVA1 231653Z 03011KT 16/10 A3008 RMK A01 T01590100  RH  068%=      5-min Rain = 0
KVA1 231654Z 03009KT 16/10 A3008 RMK A01 T01600101  RH  068%=      5-min Rain = 0
KVA1 231655Z 02010KT 16/10 A3008 RMK A01 T01630101  RH  067%=      5-min Rain = 0
KVA1 231656Z 03012KT 16/10 A3008 RMK A01 T01640101  RH  066%=      5-min Rain = 0
KVA1 231657Z 04011KT 16/10 A3008 RMK A01 T01630101  RH  067%=      5-min Rain = 0
KVA1 231658Z 03011KT 16/10 A3008 RMK A01 T01630101  RH  067%=      5-min Rain = 0
KVA1 231659Z 04011KT 16/10 A3008 RMK A01 T01630100  RH  066%=      5-min Rain = 0
KVA1 231700Z 03009KT 16/10 A3008 RMK A01 T01620100  RH  067%=      5-min Rain = 0
KVA1 231701Z 03012KT 16/10 A3008 RMK A01 T01620100  RH  067%=      5-min Rain = 0
KVA1 231702Z 04015KT 16/10 A3008 RMK A01 T01630100  RH  066%=      5-min Rain = 0
KVA1 231703Z 03011KT 16/10 A3008 RMK A01 T01630100  RH  067%=      5-min Rain = 0
KVA1 231704Z 03009KT 16/10 A3008 RMK A01 T01630101  RH  066%=      5-min Rain = 0
KVA1 231705Z 03010KT 17/10 A3008 RMK A01 T01650101  RH  066%=      5-min Rain = 0
KVA1 231706Z 03015KT 17/10 A3008 RMK A01 T01660100  RH  065%=      5-min Rain = 0
KVA1 231707Z 04013KT 17/10 A3008 RMK A01 T01660098  RH  064%=      5-min Rain = 0
KVA1 231708Z 05012KT 17/10 A3008 RMK A01 T01660098  RH  064%=      5-min Rain = 0
KVA1 231709Z 06012KT 17/10 A3008 RMK A01 T01660098  RH  064%=      5-min Rain = 0
KVA1 231710Z 07010KT 17/10 A3008 RMK A01 T01670097  RH  064%=      5-min Rain = 0
KVA1 231711Z 06007KT 17/10 A3008 RMK A01 T01680098  RH  063%=      5-min Rain = 0
KVA1 231712Z 05008KT 17/10 A3008 RMK A01 T01700097  RH  062%=      5-min Rain = 0
KVA1 231713Z 04007KT 17/10 A3008 RMK A01 T01700097  RH  062%=      5-min Rain = 0
KVA1 231714Z 05009KT 17/10 A3008 RMK A01 T01730099  RH  062%=      5-min Rain = 0
KVA1 231715Z 06010KT 17/10 A3008 RMK A01 T01740099  RH  062%=      5-min Rain = 0
KVA1 231716Z 05012KT 18/10 A3008 RMK A01 T01750099  RH  061%=      5-min Rain = 0
KVA1 231717Z 05009KT 18/10 A3008 RMK A01 T01770100  RH  060%=      5-min Rain = 0
KVA1 231718Z 05010KT 18/10 A3008 RMK A01 T01830100  RH  058%=      5-min Rain = 0
KVA1 231719Z 06009KT 18/10 A3008 RMK A01 T01830097  RH  057%=      5-min Rain = 0
KVA1 231720Z 06008KT 18/10 A3008 RMK A01 T01800097  RH  058%=      5-min Rain = 0
KVA1 231721Z 04011KT 18/10 A3008 RMK A01 T01790099  RH  060%=      5-min Rain = 0
KVA1 231722Z 02012KT 18/10 A3008 RMK A01 T01800100  RH  059%=      5-min Rain = 0
KVA1 231723Z 02008KT 18/10 A3008 RMK A01 T01780098  RH  060%=      5-min Rain = 0
KVA1 231724Z 04010KT 18/10 A3008 RMK A01 T01760099  RH  060%=      5-min Rain = 0
KVA1 231725Z 05010KT 18/10 A3008 RMK A01 T01760098  RH  060%=      5-min Rain = 0
KVA1 231726Z 04010KT 18/10 A3008 RMK A01 T01760099  RH  061%=      5-min Rain = 0
KVA1 231727Z 05011KT 18/10 A3008 RMK A01 T01770098  RH  060%=      5-min Rain = 0
KVA1 231728Z 05011G16KT 18/10 A3008 RMK A01 T01750098  RH  061%=      5-min Rain = 0
KVA1 231729Z 04009KT 18/10 A3008 RMK A01 T01750099  RH  061%=      5-min Rain = 0
KVA1 231730Z 04012KT 18/10 A3007 RMK A01 T01780099  RH  060%=      5-min Rain = 0
KVA1 231731Z 04010KT 18/10 A3008 RMK A01 T01800099  RH  059%=      5-min Rain = 0
KVA1 231732Z 03009KT 18/10 A3007 RMK A01 T01800099  RH  059%=      5-min Rain = 0
KVA1 231733Z 03011KT 18/10 A3007 RMK A01 T01780098  RH  060%=      5-min Rain = 0
KVA1 231734Z 01010KT 18/10 A3007 RMK A01 T01770098  RH  060%=      5-min Rain = 0
KVA1 231735Z 03009KT 18/10 A3007 RMK A01 T01780098  RH  059%=      5-min Rain = 0
KVA1 231736Z 03011KT 18/10 A3007 RMK A01 T01800098  RH  059%=      5-min Rain = 0
KVA1 231737Z 03011KT 18/10 A3007 RMK A01 T01790098  RH  059%=      5-min Rain = 0
KVA1 231738Z 03013KT 18/10 A3007 RMK A01 T01760097  RH  060%=      5-min Rain = 0
KVA1 231739Z 03012KT 17/10 A3007 RMK A01 T01740097  RH  061%=      5-min Rain = 0
KVA1 231740Z 03011KT 17/10 A3007 RMK A01 T01740097  RH  061%=      5-min Rain = 0
KVA1 231741Z 06009KT 18/10 A3007 RMK A01 T01750097  RH  060%=      5-min Rain = 0
KVA1 231742Z 04010KT 18/10 A3007 RMK A01 T01800100  RH  059%=      5-min Rain = 0
KVA1 231743Z 02009KT 18/10 A3007 RMK A01 T01830099  RH  058%=      5-min Rain = 0
KVA1 231744Z 03010KT 19/10 A3007 RMK A01 T01850100  RH  058%=      5-min Rain = 0
KVA1 231745Z 03010KT 19/10 A3007 RMK A01 T01870099  RH  057%=      5-min Rain = 0
KVA1 231746Z 03011KT 19/10 A3007 RMK A01 T01870098  RH  056%=      5-min Rain = 0
KVA1 231747Z 06006KT 19/10 A3007 RMK A01 T01860098  RH  057%=      5-min Rain = 0
KVA1 231748Z 05010KT 19/10 A3007 RMK A01 T01860098  RH  057%=      5-min Rain = 0
KVA1 231749Z 03011KT 19/10 A3007 RMK A01 T01850098  RH  057%=      5-min Rain = 0
KVA1 231750Z 01008KT 18/10 A3007 RMK A01 T01820098  RH  058%=      5-min Rain = 0
KVA1 231751Z 03010KT 18/10 A3006 RMK A01 T01840099  RH  058%=      5-min Rain = 0
KVA1 231752Z 04011KT 19/10 A3006 RMK A01 T01860099  RH  057%=      5-min Rain = 0
KVA1 231753Z 04011KT 19/10 A3006 RMK A01 T01860097  RH  056%=      5-min Rain = 0
KVA1 231754Z 05012KT 19/10 A3006 RMK A01 T01860098  RH  057%=      5-min Rain = 0
KVA1 231755Z 06009KT 19/10 A3006 RMK A01 T01860097  RH  056%=      5-min Rain = 0
KVA1 231756Z 05009KT 18/10 A3006 RMK A01 T01830098  RH  057%=      5-min Rain = 0
KVA1 231757Z 04013KT 18/10 A3006 RMK A01 T01830098  RH  058%=      5-min Rain = 0
KVA1 231758Z 04014KT 19/10 A3006 RMK A01 T01850097  RH  057%=      5-min Rain = 0
KVA1 231759Z 05013KT 19/10 A3006 RMK A01 T01880097  RH  055%=      5-min Rain = 0
KVA1 231800Z 04009KT 19/10 A3006 RMK A01 T01890096  RH  055%=      5-min Rain = 0
KVA1 231801Z 05005KT 19/10 A3006 RMK A01 T01860095  RH  055%=      5-min Rain = 0
KVA1 231802Z 03007G13KT 19/10 A3006 RMK A01 T01850096  RH  056%=      5-min Rain = 0
KVA1 231803Z 05007KT 19/10 A3006 RMK A01 T01880097  RH  055%=      5-min Rain = 0
KVA1 231804Z 04004KT 19/10 A3006 RMK A01 T01880096  RH  055%=      5-min Rain = 0
KVA1 231805Z 06006G12KT 19/10 A3006 RMK A01 T01860097  RH  056%=      5-min Rain = 0
KVA1 231806Z 04012KT 19/10 A3005 RMK A01 T01880097  RH  055%=      5-min Rain = 0
KVA1 231807Z 04011KT 19/10 A3005 RMK A01 T01900096  RH  054%=      5-min Rain = 0
KVA1 231808Z 05008KT 19/10 A3005 RMK A01 T01920095  RH  054%=      5-min Rain = 0
KVA1 231809Z 04008KT 19/10 A3005 RMK A01 T01930096  RH  053%=      5-min Rain = 0
KVA1 231810Z 07009G15KT 20/10 A3005 RMK A01 T01950095  RH  053%=      5-min Rain = 0
KVA1 231811Z 04010G15KT 19/10 A3005 RMK A01 T01920095  RH  053%=      5-min Rain = 0
KVA1 231812Z 05009KT 19/09 A3005 RMK A01 T01890094  RH  054%=      5-min Rain = 0
KVA1 231813Z 04008KT 19/10 A3005 RMK A01 T01890096  RH  055%=      5-min Rain = 0
KVA1 231814Z 04010KT 20/10 A3005 RMK A01 T01960098  RH  053%=      5-min Rain = 0
KVA1 231815Z 04007KT 20/10 A3005 RMK A01 T02000097  RH  052%=      5-min Rain = 0
KVA1 231816Z 03010G16KT 20/10 A3005 RMK A01 T02010097  RH  051%=      5-min Rain = 0
KVA1 231817Z 02008KT 20/10 A3005 RMK A01 T01990096  RH  051%=      5-min Rain = 0
KVA1 231818Z 02011G16KT 20/10 A3005 RMK A01 T01960095  RH  052%=      5-min Rain = 0
KVA1 231819Z 07008G13KT 19/10 A3005 RMK A01 T01940096  RH  053%=      5-min Rain = 0
KVA1 231820Z 06004KT 19/10 A3004 RMK A01 T01940097  RH  053%=      5-min Rain = 0
KVA1 231821Z 04009G14KT 20/10 A3004 RMK A01 T01950097  RH  053%=      5-min Rain = 0
KVA1 231822Z 05011KT 20/10 A3004 RMK A01 T01970095  RH  052%=      5-min Rain = 0
KVA1 231823Z 07006KT 20/10 A3004 RMK A01 T01980095  RH  052%=      5-min Rain = 0
KVA1 231824Z 06005KT 20/10 A3004 RMK A01 T01980097  RH  052%=      5-min Rain = 0
KVA1 231825Z 03007KT 20/10 A3004 RMK A01 T02010097  RH  051%=      5-min Rain = 0
KVA1 231826Z 04009KT 20/10 A3004 RMK A01 T02000096  RH  051%=      5-min Rain = 0
KVA1 231827Z 04013KT 20/10 A3004 RMK A01 T01980096  RH  052%=      5-min Rain = 0
KVA1 231828Z 04009KT 20/09 A3004 RMK A01 T01970093  RH  051%=      5-min Rain = 0
KVA1 231829Z 07009G14KT 20/09 A3004 RMK A01 T01970094  RH  051%=      5-min Rain = 0
KVA1 231830Z 04012KT 20/10 A3004 RMK A01 T02000095  RH  051%=      5-min Rain = 0
KVA1 231831Z 06009KT 20/09 A3004 RMK A01 T02020094  RH  050%=      5-min Rain = 0
KVA1 231832Z 08006KT 20/09 A3004 RMK A01 T02020093  RH  050%=      5-min Rain = 0
KVA1 231833Z 08009KT 20/09 A3004 RMK A01 T02010094  RH  050%=      5-min Rain = 0
KVA1 231834Z 08005KT 20/10 A3004 RMK A01 T02020095  RH  050%=      5-min Rain = 0
KVA1 231835Z 07007KT 20/09 A3004 RMK A01 T02030094  RH  050%=      5-min Rain = 0
KVA1 231836Z 03010KT 20/09 A3003 RMK A01 T02030094  RH  050%=      5-min Rain = 0
KVA1 231837Z 02009KT 20/10 A3003 RMK A01 T02040096  RH  050%=      5-min Rain = 0
KVA1 231838Z 02010KT 21/09 A3003 RMK A01 T02070094  RH  048%=      5-min Rain = 0
KVA1 231839Z 05009KT 21/10 A3003 RMK A01 T02070096  RH  049%=      5-min Rain = 0
KVA1 231840Z 07010KT 21/10 A3003 RMK A01 T02070095  RH  049%=      5-min Rain = 0
KVA1 231841Z 07010KT 21/10 A3003 RMK A01 T02060095  RH  049%=      5-min Rain = 0
KVA1 231842Z 06013KT 21/10 A3003 RMK A01 T02070095  RH  049%=      5-min Rain = 0
KVA1 231843Z 03011KT 20/09 A3003 RMK A01 T02040094  RH  049%=      5-min Rain = 0
KVA1 231844Z 03007KT 20/09 A3003 RMK A01 T02020094  RH  050%=      5-min Rain = 0
KVA1 231845Z 05007G13KT 20/10 A3003 RMK A01 T02010095  RH  051%=      5-min Rain = 0
KVA1 231846Z 05012KT 21/10 A3003 RMK A01 T02050096  RH  049%=      5-min Rain = 0
KVA1 231847Z 05008G15KT 21/09 A3003 RMK A01 T02070094  RH  048%=      5-min Rain = 0
KVA1 231848Z 05015KT 21/09 A3003 RMK A01 T02050094  RH  049%=      5-min Rain = 0
KVA1 231849Z 05014KT 20/09 A3003 RMK A01 T02030093  RH  049%=      5-min Rain = 0
KVA1 231850Z 04012KT 20/09 A3003 RMK A01 T02020093  RH  049%=      5-min Rain = 0
KVA1 231851Z 05011KT 20/09 A3003 RMK A01 T02020093  RH  049%=      5-min Rain = 0
KVA1 231852Z 05010KT 20/09 A3003 RMK A01 T02040093  RH  049%=      5-min Rain = 0
KVA1 231853Z 05007KT 20/09 A3003 RMK A01 T02040093  RH  049%=      5-min Rain = 0
KVA1 231854Z 04006KT 20/09 A3002 RMK A01 T02040094  RH  049%=      5-min Rain = 0
KVA1 231855Z 06007KT 21/09 A3002 RMK A01 T02050094  RH  049%=      5-min Rain = 0
KVA1 231856Z 07011KT 20/09 A3002 RMK A01 T02040094  RH  049%=      5-min Rain = 0
KVA1 231857Z 07012KT 20/09 A3002 RMK A01 T02020093  RH  049%=      5-min Rain = 0
KVA1 231858Z 07010KT 20/09 A3002 RMK A01 T02010092  RH  050%=      5-min Rain = 0
KVA1 231859Z 06012KT 20/09 A3002 RMK A01 T02020090  RH  049%=      5-min Rain = 0
KVA1 231900Z 03010KT 20/09 A3002 RMK A01 T02030089  RH  048%=      5-min Rain = 0
KVA1 231901Z 03009KT 20/09 A3002 RMK A01 T02020089  RH  048%=      5-min Rain = 0
KVA1 231902Z 06013G18KT 20/09 A3002 RMK A01 T02040089  RH  047%=      5-min Rain = 0
KVA1 231903Z 06010KT 20/09 A3002 RMK A01 T02040087  RH  047%=      5-min Rain = 0
KVA1 231904Z 06009KT 20/09 A3002 RMK A01 T02030087  RH  047%=      5-min Rain = 0
KVA1 231905Z 07010KT 21/09 A3002 RMK A01 T02050087  RH  047%=      5-min Rain = 0
KVA1 231906Z 06008KT 21/09 A3002 RMK A01 T02070087  RH  046%=      5-min Rain = 0
KVA1 231907Z 08009G15KT 21/09 A3002 RMK A01 T02070088  RH  046%=      5-min Rain = 0
KVA1 231908Z 08015KT 21/09 A3002 RMK A01 T02070089  RH  046%=      5-min Rain = 0
KVA1 231909Z 09011KT 21/09 A3002 RMK A01 T02070088  RH  046%=      5-min Rain = 0
KVA1 231910Z 08012KT 21/09 A3002 RMK A01 T02080089  RH  046%=      5-min Rain = 0
KVA1 231911Z 08009KT 21/09 A3002 RMK A01 T02120089  RH  045%=      5-min Rain = 0
KVA1 231912Z 08009KT 21/09 A3002 RMK A01 T02130089  RH  045%=      5-min Rain = 0
KVA1 231913Z 08010KT 22/09 A3002 RMK A01 T02150090  RH  045%=      5-min Rain = 0
KVA1 231914Z 06010KT 22/09 A3001 RMK A01 T02170088  RH  043%=      5-min Rain = 0
KVA1 231915Z 07009KT 22/09 A3001 RMK A01 T02180088  RH  043%=      5-min Rain = 0
KVA1 231916Z 08011KT 22/09 A3001 RMK A01 T02190089  RH  043%=      5-min Rain = 0
KVA1 231917Z 08013G18KT 22/09 A3001 RMK A01 T02230089  RH  042%=      5-min Rain = 0
KVA1 231918Z 08010KT 22/09 A3001 RMK A01 T02230088  RH  042%=      5-min Rain = 0
KVA1 231919Z 08007KT 22/09 A3001 RMK A01 T02210089  RH  043%=      5-min Rain = 0
KVA1 231920Z 08014G22KT 22/09 A3001 RMK A01 T02220089  RH  043%=      5-min Rain = 0
KVA1 231921Z 07014KT 22/09 A3001 RMK A01 T02190088  RH  043%=      5-min Rain = 0
KVA1 231922Z 08013KT 22/09 A3001 RMK A01 T02180088  RH  043%=      5-min Rain = 0
KVA1 231923Z 08014KT 22/09 A3001 RMK A01 T02180088  RH  043%=      5-min Rain = 0
KVA1 231924Z 08010KT 22/09 A3001 RMK A01 T02180088  RH  043%=      5-min Rain = 0
KVA1 231925Z 06013KT 22/09 A3001 RMK A01 T02190087  RH  043%=      5-min Rain = 0
KVA1 231926Z 05014G19KT 22/09 A3001 RMK A01 T02200087  RH  043%=      5-min Rain = 0
KVA1 231927Z 06014KT 22/09 A3001 RMK A01 T02230086  RH  042%=      5-min Rain = 0
KVA1 231928Z 08010KT 22/09 A3001 RMK A01 T02220085  RH  041%=      5-min Rain = 0
KVA1 231929Z 08011KT 22/08 A3001 RMK A01 T02210084  RH  042%=      5-min Rain = 0
KVA1 231930Z 07009KT 22/09 A3001 RMK A01 T02200085  RH  042%=      5-min Rain = 0
KVA1 231931Z 08007KT 22/09 A3001 RMK A01 T02180085  RH  042%=      5-min Rain = 0
KVA1 231932Z 07007G13KT 22/09 A3001 RMK A01 T02170085  RH  043%=      5-min Rain = 0
KVA1 231933Z 07013KT 22/09 A3001 RMK A01 T02190086  RH  043%=      5-min Rain = 0
KVA1 231934Z 09009KT 22/09 A3001 RMK A01 T02210085  RH  042%=      5-min Rain = 0
KVA1 231935Z 10009KT 22/08 A30 RMK A01 T02200084  RH  042%=      5-min Rain = 0
KVA1 231936Z 07012G19KT 22/09 A30 RMK A01 T02220086  RH  042%=      5-min Rain = 0
KVA1 231937Z 06012KT 22/09 A30 RMK A01 T02230085  RH  041%=      5-min Rain = 0
KVA1 231938Z 05012KT 22/08 A30 RMK A01 T02240084  RH  041%=      5-min Rain = 0
KVA1 231939Z 06014G20KT 22/08 A30 RMK A01 T02230084  RH  041%=      5-min Rain = 0
KVA1 231940Z 06014G19KT 23/09 A30 RMK A01 T02250086  RH  041%=      5-min Rain = 0
KVA1 231941Z 06010KT 22/09 A30 RMK A01 T02240085  RH  041%=      5-min Rain = 0
KVA1 231942Z 06012KT 22/08 A30 RMK A01 T02230084  RH  041%=      5-min Rain = 0
KVA1 231943Z 06010KT 22/08 A30 RMK A01 T02210083  RH  041%=      5-min Rain = 0
KVA1 231944Z 08013G21KT 22/09 A30 RMK A01 T02180085  RH  042%=      5-min Rain = 0
KVA1 231945Z 08018KT 22/09 A30 RMK A01 T02180086  RH  043%=      5-min Rain = 0
KVA1 231946Z 07015KT 21/09 A30 RMK A01 T02140085  RH  043%=      5-min Rain = 0
KVA1 231947Z 06013G21KT 21/09 A30 RMK A01 T02120085  RH  044%=      5-min Rain = 0
KVA1 231948Z 06013KT 21/09 A30 RMK A01 T02120085  RH  044%=      5-min Rain = 0
KVA1 231949Z 06011KT 21/08 A30 RMK A01 T02120084  RH  044%=      5-min Rain = 0
KVA1 231950Z 06011KT 21/08 A30 RMK A01 T02130084  RH  043%=      5-min Rain = 0
KVA1 231951Z 06011KT 21/08 A30 RMK A01 T02140083  RH  043%=      5-min Rain = 0
KVA1 231952Z 05010KT 22/08 A30 RMK A01 T02170082  RH  042%=      5-min Rain = 0
KVA1 231953Z 04012KT 22/08 A30 RMK A01 T02180084  RH  042%=      5-min Rain = 0
KVA1 231954Z 05012KT 22/09 A2999 RMK A01 T02200085  RH  042%=      5-min Rain = 0
KVA1 231955Z 06016KT 22/09 A30 RMK A01 T02200085  RH  042%=      5-min Rain = 0
KVA1 231956Z 05015KT 22/08 A30 RMK A01 T02180084  RH  042%=      5-min Rain = 0
KVA1 231957Z 06014KT 22/08 A30 RMK A01 T02180083  RH  042%=      5-min Rain = 0
KVA1 231958Z 06012G17KT 22/08 A30 RMK A01 T02180083  RH  042%=      5-min Rain = 0
KVA1 231959Z 05012KT 22/08 A30 RMK A01 T02150082  RH  042%=      5-min Rain = 0
KVA1 232000Z 06010KT 22/08 A30 RMK A01 T02150082  RH  042%=      5-min Rain = 0
KVA1 232001Z 08009KT 22/08 A2999 RMK A01 T02150082  RH  042%=      5-min Rain = 0
KVA1 232002Z 07009KT 22/08 A2999 RMK A01 T02170083  RH  042%=      5-min Rain = 0
KVA1 232003Z 06015G21KT 22/09 A2999 RMK A01 T02170085  RH  043%=      5-min Rain = 0
KVA1 232004Z 07014KT 22/09 A2999 RMK A01 T02210085  RH  042%=      5-min Rain = 0
KVA1 232005Z 06014KT 22/08 A2999 RMK A01 T02220083  RH  041%=      5-min Rain = 0
KVA1 232006Z 06011KT 22/08 A2999 RMK A01 T02230084  RH  041%=      5-min Rain = 0
KVA1 232007Z 07011KT 23/08 A2999 RMK A01 T02250084  RH  040%=      5-min Rain = 0
KVA1 232008Z 07011KT 23/08 A2999 RMK A01 T02280084  RH  040%=      5-min Rain = 0
KVA1 232009Z 07011KT 23/08 A2999 RMK A01 T02250082  RH  040%=      5-min Rain = 0
KVA1 232010Z 06010KT 22/08 A2999 RMK A01 T02220083  RH  041%=      5-min Rain = 0
KVA1 232011Z 05013KT 22/08 A2999 RMK A01 T02210084  RH  041%=      5-min Rain = 0
KVA1 232012Z 05013KT 22/09 A2999 RMK A01 T02220085  RH  041%=      5-min Rain = 0
KVA1 232013Z 06014KT 22/08 A2999 RMK A01 T02200084  RH  042%=      5-min Rain = 0
KVA1 232014Z 05013KT 22/09 A2999 RMK A01 T02190085  RH  042%=      5-min Rain = 0
KVA1 232015Z 09012KT 22/09 A2999 RMK A01 T02210086  RH  042%=      5-min Rain = 0
KVA1 232016Z 08010KT 22/09 A2999 RMK A01 T02190086  RH  043%=      5-min Rain = 0
KVA1 232017Z 05011KT 22/08 A2999 RMK A01 T02180084  RH  042%=      5-min Rain = 0
KVA1 232018Z 06015KT 22/08 A2999 RMK A01 T02210082  RH  041%=      5-min Rain = 0
KVA1 232019Z 06011KT 22/08 A2999 RMK A01 T02190082  RH  041%=      5-min Rain = 0
KVA1 232020Z 07010KT 22/08 A2999 RMK A01 T02170082  RH  042%=      5-min Rain = 0
KVA1 232021Z 07011KT 22/08 A2999 RMK A01 T02180083  RH  042%=      5-min Rain = 0
KVA1 232022Z 08010KT 22/08 A2998 RMK A01 T02170083  RH  042%=      5-min Rain = 0
KVA1 232023Z 08010KT 22/08 A2998 RMK A01 T02180084  RH  042%=      5-min Rain = 0
KVA1 232024Z 07010KT 22/08 A2998 RMK A01 T02230084  RH  041%=      5-min Rain = 0
KVA1 232025Z 06010KT 22/08 A2998 RMK A01 T02240083  RH  040%=      5-min Rain = 0
KVA1 232026Z 07011KT 23/08 A2998 RMK A01 T02260084  RH  040%=      5-min Rain = 0
KVA1 232027Z 04013G18KT 23/08 A2998 RMK A01 T02290083  RH  039%=      5-min Rain = 0
KVA1 232028Z 03014KT 23/08 A2998 RMK A01 T02280084  RH  040%=      5-min Rain = 0
KVA1 232029Z 04012KT 23/09 A2998 RMK A01 T02280085  RH  040%=      5-min Rain = 0
KVA1 232030Z 06011KT 23/09 A2998 RMK A01 T02290087  RH  040%=      5-min Rain = 0
KVA1 232031Z 08012G18KT 23/09 A2998 RMK A01 T02320088  RH  040%=      5-min Rain = 0
KVA1 232032Z 06015KT 24/09 A2998 RMK A01 T02350086  RH  039%=      5-min Rain = 0
KVA1 232033Z 05010KT 23/08 A2998 RMK A01 T02340084  RH  038%=      5-min Rain = 0
KVA1 232034Z 04010G15KT 23/09 A2998 RMK A01 T02310085  RH  039%=      5-min Rain = 0
KVA1 232035Z 04013KT 23/09 A2998 RMK A01 T02340087  RH  039%=      5-min Rain = 0
KVA1 232036Z 04014KT 23/09 A2998 RMK A01 T02320091  RH  041%=      5-min Rain = 0
KVA1 232037Z 03015KT 23/09 A2998 RMK A01 T02290091  RH  041%=      5-min Rain = 0
KVA1 232038Z 05013KT 23/09 A2998 RMK A01 T02260091  RH  042%=      5-min Rain = 0
KVA1 232039Z 04012G17KT 23/09 A2998 RMK A01 T02290092  RH  042%=      5-min Rain = 0
KVA1 232040Z 03014G22KT 23/09 A2998 RMK A01 T02330092  RH  041%=      5-min Rain = 0
KVA1 232041Z 03016KT 23/09 A2997 RMK A01 T02300091  RH  041%=      5-min Rain = 0
KVA1 232042Z 04016KT 23/09 A2997 RMK A01 T02280092  RH  042%=      5-min Rain = 0
KVA1 232043Z 04017KT 23/09 A2997 RMK A01 T02300092  RH  042%=      5-min Rain = 0
KVA1 232044Z 05012G17KT 23/09 A2998 RMK A01 T02290090  RH  041%=      5-min Rain = 0
KVA1 232045Z 04017KT 23/09 A2997 RMK A01 T02250091  RH  042%=      5-min Rain = 0
KVA1 232046Z 04016G21KT 22/09 A2997 RMK A01 T02210093  RH  044%=      5-min Rain = 0
KVA1 232047Z 05016KT 22/09 A2997 RMK A01 T02170093  RH  045%=      5-min Rain = 0
KVA1 232048Z 04016G23KT 22/09 A2997 RMK A01 T02160093  RH  045%=      5-min Rain = 0
KVA1 232049Z 03020KT 22/09 A2997 RMK A01 T02190092  RH  044%=      5-min Rain = 0
KVA1 232050Z 04018KT 22/09 A2997 RMK A01 T02200092  RH  044%=      5-min Rain = 0
KVA1 232051Z 05017KT 22/09 A2997 RMK A01 T02220092  RH  043%=      5-min Rain = 0
KVA1 232052Z 04018KT 22/09 A2997 RMK A01 T02220093  RH  044%=      5-min Rain = 0
KVA1 232053Z 03019KT 22/09 A2997 RMK A01 T02220093  RH  044%=      5-min Rain = 0
KVA1 232054Z 04015KT 22/09 A2997 RMK A01 T02200092  RH  044%=      5-min Rain = 0
KVA1 232055Z 03015KT 22/09 A2997 RMK A01 T02200091  RH  044%=      5-min Rain = 0
KVA1 232056Z 05015KT 22/09 A2997 RMK A01 T02180091  RH  044%=      5-min Rain = 0
KVA1 232057Z 04013KT 22/09 A2997 RMK A01 T02230093  RH  044%=      5-min Rain = 0
KVA1 232058Z 03016KT 23/09 A2997 RMK A01 T02290094  RH  042%=      5-min Rain = 0
KVA1 232059Z 04015KT 23/09 A2997 RMK A01 T02280094  RH  043%=      5-min Rain = 0
KVA1 232100Z 03016KT 22/09 A2997 RMK A01 T02220093  RH  044%=      5-min Rain = 0
KVA1 232101Z 03014KT 22/09 A2997 RMK A01 T02180093  RH  045%=      5-min Rain = 0
KVA1 232102Z 04013KT 22/09 A2997 RMK A01 T02190091  RH  044%=      5-min Rain = 0
KVA1 232103Z 05014KT 22/09 A2997 RMK A01 T02190091  RH  044%=      5-min Rain = 0
KVA1 232104Z 03017KT 22/09 A2997 RMK A01 T02200093  RH  044%=      5-min Rain = 0
KVA1 232105Z 03015G20KT 22/09 A2997 RMK A01 T02220092  RH  043%=      5-min Rain = 0
KVA1 232106Z 03011G17KT 22/09 A2997 RMK A01 T02230093  RH  043%=      5-min Rain = 0
KVA1 232107Z 05015KT 23/09 A2996 RMK A01 T02270093  RH  043%=      5-min Rain = 0
KVA1 232108Z 03017KT 22/09 A2996 RMK A01 T02240094  RH  043%=      5-min Rain = 0
KVA1 232109Z 02016G21KT 22/10 A2996 RMK A01 T02240095  RH  044%=      5-min Rain = 0
KVA1 232110Z 04017KT 23/09 A2996 RMK A01 T02280094  RH  043%=      5-min Rain = 0
KVA1 232111Z 05017KT 23/09 A2996 RMK A01 T02250092  RH  042%=      5-min Rain = 0
KVA1 232112Z 06014G19KT 22/09 A2996 RMK A01 T02200091  RH  044%=      5-min Rain = 0
KVA1 232113Z 03013G18KT 22/09 A2996 RMK A01 T02200091  RH  044%=      5-min Rain = 0
KVA1 232114Z 02013KT 22/09 A2996 RMK A01 T02220092  RH  043%=      5-min Rain = 0
KVA1 232115Z 03019KT 22/09 A2996 RMK A01 T02210093  RH  044%=      5-min Rain = 0
KVA1 232116Z 02016KT 22/09 A2996 RMK A01 T02210093  RH  044%=      5-min Rain = 0
KVA1 232117Z 03016KT 22/09 A2996 RMK A01 T02210092  RH  044%=      5-min Rain = 0
KVA1 232118Z 03015KT 22/09 A2996 RMK A01 T02200092  RH  044%=      5-min Rain = 0
KVA1 232119Z 04016KT 22/09 A2996 RMK A01 T02210091  RH  043%=      5-min Rain = 0
KVA1 232120Z 04012KT 22/09 A2996 RMK A01 T02210091  RH  044%=      5-min Rain = 0
KVA1 232121Z 03012KT 22/09 A2996 RMK A01 T02230091  RH  043%=      5-min Rain = 0
KVA1 232122Z 03010KT 22/09 A2996 RMK A01 T02230091  RH  043%=      5-min Rain = 0
KVA1 232123Z 02011KT 22/09 A2996 RMK A01 T02230092  RH  043%=      5-min Rain = 0
KVA1 232124Z 03016KT 23/09 A2996 RMK A01 T02250093  RH  043%=      5-min Rain = 0
KVA1 232125Z 03015G20KT 22/09 A2996 RMK A01 T02230093  RH  043%=      5-min Rain = 0
KVA1 232126Z 04013G22KT 22/09 A2996 RMK A01 T02220093  RH  044%=      5-min Rain = 0
KVA1 232127Z 06017KT 23/09 A2996 RMK A01 T02250092  RH  043%=      5-min Rain = 0
KVA1 232128Z 06013KT 23/09 A2996 RMK A01 T02250091  RH  042%=      5-min Rain = 0
KVA1 232129Z 05011KT 22/09 A2996 RMK A01 T02230091  RH  043%=      5-min Rain = 0
KVA1 232130Z 06016KT 22/09 A2996 RMK A01 T02220090  RH  043%=      5-min Rain = 0
KVA1 232131Z 05011KT 22/09 A2996 RMK A01 T02190090  RH  044%=      5-min Rain = 0
KVA1 232132Z 04012G20KT 22/09 A2996 RMK A01 T02160090  RH  044%=      5-min Rain = 0
KVA1 232133Z 02017KT 22/09 A2995 RMK A01 T02180091  RH  044%=      5-min Rain = 0
KVA1 232134Z 03015KT 22/09 A2995 RMK A01 T02180091  RH  044%=      5-min Rain = 0
KVA1 232135Z 05014KT 22/09 A2996 RMK A01 T02210092  RH  044%=      5-min Rain = 0
KVA1 232136Z 05013KT 22/09 A2995 RMK A01 T02220092  RH  043%=      5-min Rain = 0
KVA1 232137Z 04011KT 22/09 A2995 RMK A01 T02220092  RH  043%=      5-min Rain = 0
KVA1 232138Z 03010KT 22/09 A2995 RMK A01 T02220091  RH  043%=      5-min Rain = 0
KVA1 232139Z 03015KT 22/09 A2995 RMK A01 T02240092  RH  043%=      5-min Rain = 0
KVA1 232140Z 02016KT 23/09 A2995 RMK A01 T02250093  RH  043%=      5-min Rain = 0
KVA1 232141Z 02017KT 22/09 A2995 RMK A01 T02240093  RH  043%=      5-min Rain = 0
KVA1 232142Z 03013KT 22/09 A2995 RMK A01 T02210092  RH  044%=      5-min Rain = 0
KVA1 232143Z 04012KT 22/09 A2995 RMK A01 T02210092  RH  044%=      5-min Rain = 0
KVA1 232144Z 04014KT 23/09 A2995 RMK A01 T02280093  RH  042%=      5-min Rain = 0
KVA1 232145Z 04012G18KT 23/09 A2995 RMK A01 T02300091  RH  041%=      5-min Rain = 0
KVA1 232146Z 04009KT 23/09 A2995 RMK A01 T02270090  RH  042%=      5-min Rain = 0
KVA1 232147Z 05012G22KT 23/09 A2995 RMK A01 T02260091  RH  042%=      5-min Rain = 0
KVA1 232148Z 04016KT 23/09 A2995 RMK A01 T02280093  RH  042%=      5-min Rain = 0
KVA1 232149Z 04013KT 23/09 A2995 RMK A01 T02320092  RH  041%=      5-min Rain = 0
KVA1 232150Z 04013G20KT 23/09 A2995 RMK A01 T02300091  RH  041%=      5-min Rain = 0
KVA1 232151Z 04013KT 23/09 A2995 RMK A01 T02250090  RH  042%=      5-min Rain = 0
KVA1 232152Z 04011KT 22/09 A2995 RMK A01 T02230090  RH  043%=      5-min Rain = 0
KVA1 232153Z 03012KT 22/09 A2995 RMK A01 T02230090  RH  043%=      5-min Rain = 0
KVA1 232154Z 03013KT 22/09 A2994 RMK A01 T02230090  RH  043%=      5-min Rain = 0
KVA1 232155Z 04011KT 22/09 A2994 RMK A01 T02230092  RH  043%=      5-min Rain = 0
KVA1 232156Z 02012G19KT 23/09 A2994 RMK A01 T02270093  RH  042%=      5-min Rain = 0
KVA1 232157Z 01016KT 23/09 A2994 RMK A01 T02290092  RH  042%=      5-min Rain = 0
KVA1 232158Z 02016KT 23/09 A2994 RMK A01 T02260092  RH  042%=      5-min Rain = 0
KVA1 232159Z 04016KT 22/09 A2994 RMK A01 T02230091  RH  043%=      5-min Rain = 0
KVA1 232200Z 04017KT 23/09 A2994 RMK A01 T02270091  RH  042%=      5-min Rain = 0
KVA1 232201Z 05017KT 23/09 A2994 RMK A01 T02270088  RH  041%=      5-min Rain = 0
KVA1 232202Z 04013KT 22/09 A2994 RMK A01 T02220089  RH  043%=      5-min Rain = 0
KVA1 232203Z 05014KT 22/09 A2994 RMK A01 T02200089  RH  043%=      5-min Rain = 0
KVA1 232204Z 05012KT 22/09 A2994 RMK A01 T02190088  RH  043%=      5-min Rain = 0
KVA1 232205Z 05014KT 22/09 A2993 RMK A01 T02190088  RH  043%=      5-min Rain = 0
KVA1 232206Z 04015G20KT 22/09 A2993 RMK A01 T02200089  RH  043%=      5-min Rain = 0
KVA1 232207Z 04013KT 22/09 A2993 RMK A01 T02200090  RH  043%=      5-min Rain = 0
KVA1 232208Z 03016KT 22/09 A2993 RMK A01 T02220090  RH  043%=      5-min Rain = 0
KVA1 232209Z 02014KT 22/09 A2993 RMK A01 T02230089  RH  042%=      5-min Rain = 0
KVA1 232210Z 03014KT 23/09 A2993 RMK A01 T02260090  RH  042%=      5-min Rain = 0
KVA1 232211Z 03011KT 23/09 A2993 RMK A01 T02260089  RH  041%=      5-min Rain = 0
KVA1 232212Z 01015KT 23/09 A2993 RMK A01 T02260090  RH  042%=      5-min Rain = 0
KVA1 232213Z 02017KT 23/09 A2993 RMK A01 T02260090  RH  042%=      5-min Rain = 0
KVA1 232214Z 02014KT 22/09 A2993 RMK A01 T02240090  RH  042%=      5-min Rain = 0
KVA1 232215Z 04014G20KT 23/09 A2993 RMK A01 T02260090  RH  042%=      5-min Rain = 0
KVA1 232216Z 05014G19KT 23/09 A2992 RMK A01 T02290090  RH  041%=      5-min Rain = 0
KVA1 232217Z 05013KT 23/09 A2992 RMK A01 T02310089  RH  040%=      5-min Rain = 0
KVA1 232218Z 06013KT 23/09 A2992 RMK A01 T02310087  RH  040%=      5-min Rain = 0
KVA1 232219Z 06013KT 23/09 A2992 RMK A01 T02300086  RH  040%=      5-min Rain = 0
KVA1 232220Z 05012KT 23/09 A2993 RMK A01 T02280086  RH  040%=      5-min Rain = 0
KVA1 232221Z 05017KT 23/09 A2993 RMK A01 T02280087  RH  041%=      5-min Rain = 0
KVA1 232222Z 03013G18KT 23/09 A2993 RMK A01 T02270087  RH  041%=      5-min Rain = 0
KVA1 232223Z 03013KT 23/09 A2992 RMK A01 T02260087  RH  041%=      5-min Rain = 0
KVA1 232224Z 04012KT 23/09 A2992 RMK A01 T02250087  RH  041%=      5-min Rain = 0
KVA1 232225Z 05016G21KT 23/09 A2992 RMK A01 T02270087  RH  041%=      5-min Rain = 0
KVA1 232226Z 05015KT 23/09 A2992 RMK A01 T02280085  RH  040%=      5-min Rain = 0
KVA1 232227Z 06012KT 23/09 A2992 RMK A01 T02310086  RH  040%=      5-min Rain = 0
KVA1 232228Z 05012KT 23/09 A2992 RMK A01 T02310086  RH  039%=      5-min Rain = 0
KVA1 232229Z 06013KT 23/09 A2992 RMK A01 T02270085  RH  040%=      5-min Rain = 0
KVA1 232230Z 07014KT 22/09 A2992 RMK A01 T02240086  RH  041%=      5-min Rain = 0
KVA1 232231Z 06013G18KT 22/09 A2992 RMK A01 T02220086  RH  042%=      5-min Rain = 0
KVA1 232232Z 05011KT 22/09 A2992 RMK A01 T02220087  RH  042%=      5-min Rain = 0
KVA1 232233Z 04009KT 23/09 A2992 RMK A01 T02250087  RH  041%=      5-min Rain = 0
KVA1 232234Z 06010KT 23/09 A2992 RMK A01 T02270088  RH  041%=      5-min Rain = 0
KVA1 232235Z 08010KT 23/09 A2992 RMK A01 T02280087  RH  041%=      5-min Rain = 0
KVA1 232236Z 08012KT 23/09 A2992 RMK A01 T02290087  RH  040%=      5-min Rain = 0
KVA1 232237Z 08014KT 23/09 A2992 RMK A01 T02300086  RH  040%=      5-min Rain = 0
KVA1 232238Z 06015KT 23/09 A2992 RMK A01 T02270085  RH  040%=      5-min Rain = 0
KVA1 232239Z 05014KT 22/08 A2992 RMK A01 T02230084  RH  041%=      5-min Rain = 0
KVA1 232240Z 05012KT 22/09 A2992 RMK A01 T02210085  RH  041%=      5-min Rain = 0
KVA1 232241Z 05012KT 22/08 A2992 RMK A01 T02220083  RH  041%=      5-min Rain = 0
KVA1 232242Z 05011KT 22/08 A2992 RMK A01 T02210084  RH  041%=      5-min Rain = 0
KVA1 232243Z 05012KT 22/09 A2992 RMK A01 T02210085  RH  042%=      5-min Rain = 0
KVA1 232244Z 06012KT 22/09 A2992 RMK A01 T02220086  RH  042%=      5-min Rain = 0
KVA1 232245Z 07012KT 22/09 A2992 RMK A01 T02230087  RH  042%=      5-min Rain = 0
KVA1 232246Z 06017KT 23/09 A2992 RMK A01 T02260087  RH  041%=      5-min Rain = 0
KVA1 232247Z 06013KT 22/09 A2992 RMK A01 T02240086  RH  041%=      5-min Rain = 0
KVA1 232248Z 07010KT 22/09 A2992 RMK A01 T02230087  RH  042%=      5-min Rain = 0
KVA1 232249Z 07013KT 23/09 A2992 RMK A01 T02270088  RH  041%=      5-min Rain = 0
KVA1 232250Z 06016KT 23/09 A2992 RMK A01 T02310087  RH  040%=      5-min Rain = 0
KVA1 232251Z 06016KT 23/09 A2992 RMK A01 T02260085  RH  040%=      5-min Rain = 0
KVA1 232252Z 07013KT 22/08 A2992 RMK A01 T02190084  RH  042%=      5-min Rain = 0
KVA1 232253Z 08014KT 22/08 A2992 RMK A01 T02180083  RH  042%=      5-min Rain = 0
KVA1 232254Z 08013KT 22/08 A2992 RMK A01 T02180083  RH  042%=      5-min Rain = 0
KVA1 232255Z 08010KT 22/08 A2992 RMK A01 T02170084  RH  042%=      5-min Rain = 0
KVA1 232256Z 08012KT 22/08 A2992 RMK A01 T02170083  RH  042%=      5-min Rain = 0
KVA1 232257Z 05012G17KT 22/09 A2992 RMK A01 T02200085  RH  042%=      5-min Rain = 0
KVA1 232258Z 06013G18KT 22/09 A2992 RMK A01 T02220086  RH  042%=      5-min Rain = 0
KVA1 232259Z 06013KT 22/09 A2992 RMK A01 T02230086  RH  041%=      5-min Rain = 0
KVA1 232300Z 06014G19KT 23/09 A2992 RMK A01 T02260086  RH  041%=      5-min Rain = 0
KVA1 232301Z 07012KT 23/09 A2992 RMK A01 T02270085  RH  040%=      5-min Rain = 0
KVA1 232302Z 06016KT 23/09 A2992 RMK A01 T02250085  RH  041%=      5-min Rain = 0
KVA1 232303Z 07014KT 22/08 A2992 RMK A01 T02200083  RH  041%=      5-min Rain = 0
KVA1 232304Z 08012KT 22/09 A2993 RMK A01 T02180086  RH  043%=      5-min Rain = 0
KVA1 232305Z 07010G15KT 22/09 A2993 RMK A01 T02170086  RH  043%=      5-min Rain = 0
KVA1 232306Z 06014KT 22/08 A2993 RMK A01 T02180083  RH  042%=      5-min Rain = 0
KVA1 232307Z 07014KT 22/08 A2993 RMK A01 T02170082  RH  042%=      5-min Rain = 0
KVA1 232308Z 07012KT 22/08 A2993 RMK A01 T02160082  RH  042%=      5-min Rain = 0
KVA1 232309Z 06015KT 22/08 A2993 RMK A01 T02180082  RH  042%=      5-min Rain = 0
KVA1 232310Z 06014KT 22/08 A2993 RMK A01 T02220083  RH  041%=      5-min Rain = 0
KVA1 232311Z 06013KT 22/08 A2993 RMK A01 T02230083  RH  041%=      5-min Rain = 0
KVA1 232312Z 07012KT 22/09 A2993 RMK A01 T02240085  RH  041%=      5-min Rain = 0
KVA1 232313Z 08015KT 22/09 A2993 RMK A01 T02240088  RH  042%=      5-min Rain = 0
KVA1 232314Z 08016KT 22/09 A2994 RMK A01 T02230088  RH  042%=      5-min Rain = 0
KVA1 232315Z 07012KT 22/09 A2994 RMK A01 T02210087  RH  042%=      5-min Rain = 0
KVA1 232316Z 08015G21KT 22/09 A2994 RMK A01 T02200087  RH  043%=      5-min Rain = 0
KVA1 232317Z 07014KT 22/09 A2994 RMK A01 T02210088  RH  043%=      5-min Rain = 0
KVA1 232318Z 06014KT 22/09 A2994 RMK A01 T02210088  RH  043%=      5-min Rain = 0
KVA1 232319Z 05014KT 22/09 A2994 RMK A01 T02200087  RH  043%=      5-min Rain = 0
KVA1 232320Z 06017KT 22/09 A2994 RMK A01 T02190087  RH  043%=      5-min Rain = 0
KVA1 232321Z 06014G19KT 22/09 A2994 RMK A01 T02180087  RH  043%=      5-min Rain = 0
KVA1 232322Z 06015KT 22/09 A2993 RMK A01 T02170087  RH  043%=      5-min Rain = 0
KVA1 232323Z 08012G18KT 22/09 A2993 RMK A01 T02170088  RH  043%=      5-min Rain = 0
KVA1 232324Z 07016KT 22/09 A2993 RMK A01 T02190088  RH  043%=      5-min Rain = 0
KVA1 232325Z 07016KT 22/09 A2993 RMK A01 T02180088  RH  043%=      5-min Rain = 0
KVA1 232326Z 07014KT 22/09 A2993 RMK A01 T02170090  RH  044%=      5-min Rain = 0
KVA1 232327Z 08016KT 22/09 A2993 RMK A01 T02160091  RH  045%=      5-min Rain = 0
KVA1 232328Z 07013G19KT 22/09 A2993 RMK A01 T02150091  RH  045%=      5-min Rain = 0
KVA1 232329Z 07018KT 22/09 A2993 RMK A01 T02150091  RH  045%=      5-min Rain = 0
KVA1 232330Z 08015KT 22/09 A2993 RMK A01 T02150090  RH  045%=      5-min Rain = 0
KVA1 232331Z 07017KT 21/09 A2993 RMK A01 T02140090  RH  045%=      5-min Rain = 0
KVA1 232332Z 06014KT 21/09 A2993 RMK A01 T02120089  RH  045%=      5-min Rain = 0
KVA1 232333Z 07013KT 21/09 A2994 RMK A01 T02100090  RH  046%=      5-min Rain = 0
KVA1 232334Z 06014G19KT 21/09 A2994 RMK A01 T02100090  RH  046%=      5-min Rain = 0
KVA1 232335Z 05012KT 21/09 A2994 RMK A01 T02090090  RH  046%=      5-min Rain = 0
KVA1 232336Z 05013KT 21/09 A2995 RMK A01 T02080090  RH  047%=      5-min Rain = 0
KVA1 232337Z 04008KT 21/09 A2995 RMK A01 T02080090  RH  047%=      5-min Rain = 0
KVA1 232338Z 04008KT 21/09 A2995 RMK A01 T02080089  RH  047%=      5-min Rain = 0
KVA1 232339Z 05008KT 21/09 A2996 RMK A01 T02080089  RH  046%=      5-min Rain = 0
KVA1 232340Z 04008KT 21/09 A2996 RMK A01 T02080090  RH  047%=      5-min Rain = 0
KVA1 232341Z 05009KT 21/09 A2996 RMK A01 T02080090  RH  047%=      5-min Rain = 0
KVA1 232342Z 05006KT 21/09 A2996 RMK A01 T02090090  RH  047%=      5-min Rain = 0
KVA1 232343Z 02007KT 21/09 A2997 RMK A01 T02090090  RH  047%=      5-min Rain = 0
KVA1 232344Z 00009KT 21/09 A2997 RMK A01 T02090091  RH  047%=      5-min Rain = 0
KVA1 232345Z 00011KT 21/09 A2997 RMK A01 T02090090  RH  047%=      5-min Rain = 0
KVA1 232346Z 35011KT 21/09 A2997 RMK A01 T02090091  RH  047%=      5-min Rain = 0
KVA1 232347Z 35012KT 21/09 A2997 RMK A01 T02090091  RH  047%=      5-min Rain = 0
KVA1 232348Z 35011KT 21/09 A2997 RMK A01 T02080090  RH  047%=      5-min Rain = 0
KVA1 232349Z 01014KT 21/09 A2997 RMK A01 T02090091  RH  047%=      5-min Rain = 0
KVA1 232350Z 02012KT 21/09 A2997 RMK A01 T02080094  RH  048%=      5-min Rain = 0
KVA1 232351Z 01015G20KT 21/09 A2997 RMK A01 T02060094  RH  049%=      5-min Rain = 0
KVA1 232352Z 35017G24KT 20/09 A2997 RMK A01 T02040094  RH  049%=      5-min Rain = 0
KVA1 232353Z 35016G21KT 20/09 A2997 RMK A01 T02030094  RH  050%=      5-min Rain = 0
KVA1 232354Z 36022KT 20/09 A2997 RMK A01 T02020094  RH  050%=      5-min Rain = 0
KVA1 232355Z 00020KT 20/09 A2997 RMK A01 T01990094  RH  051%=      5-min Rain = 0
KVA1 232356Z 36017G23KT 20/09 A2998 RMK A01 T01980094  RH  051%=      5-min Rain = 0
KVA1 232357Z 00017KT 20/09 A2998 RMK A01 T01980094  RH  051%=      5-min Rain = 0
KVA1 232358Z 00017G23KT 20/09 A2998 RMK A01 T01980094  RH  051%=      5-min Rain = 0
KVA1 232359Z 35020G25KT 20/09 A2998 RMK A01 T01980093  RH  051%=      5-min Rain = 0
KVA1 240000Z 34021G27KT 20/09 A2998 RMK A01 T01960092  RH  051%=      5-min Rain = 0
KVA1 240001Z 35020G27KT 19/09 A2998 RMK A01 T01890091  RH  053%=      5-min Rain = 0
KVA1 240002Z 35024G30KT 18/09 A2998 RMK A01 T01810092  RH  056%=      5-min Rain = 0
KVA1 240003Z 35024G30KT 17/09 A2998 RMK A01 T01740091  RH  058%=      5-min Rain = 0
KVA1 240004Z 35023KT 17/09 A2998 RMK A01 T01690091  RH  060%=      5-min Rain = 0
KVA1 240005Z 35020G25KT 17/09 A2998 RMK A01 T01650091  RH  062%=      5-min Rain = 0
KVA1 240006Z 35020G27KT 16/09 A2998 RMK A01 T01610091  RH  063%=      5-min Rain = 0
KVA1 240007Z 35022KT 16/09 A2998 RMK A01 T01570092  RH  065%=      5-min Rain = 0
KVA1 240008Z 35019G24KT 16/09 A2998 RMK A01 T01550091  RH  066%=      5-min Rain = 0
KVA1 240009Z 35016G22KT 15/09 A2998 RMK A01 T01520094  RH  068%=      5-min Rain = 0
KVA1 240010Z 00019G25KT 15/09 A2998 RMK A01 T01510091  RH  067%=      5-min Rain = 0
KVA1 240011Z 00023G28KT 15/09 A2998 RMK A01 T01510087  RH  065%=      5-min Rain = 0
KVA1 240012Z 01017G24KT 15/09 A2998 RMK A01 T01520087  RH  065%=      5-min Rain = 0
KVA1 240013Z 01019KT 15/09 A2998 RMK A01 T01520087  RH  065%=      5-min Rain = 0
KVA1 240014Z 01019KT 15/09 A2998 RMK A01 T01520087  RH  065%=      5-min Rain = 0
KVA1 240015Z 01015KT 15/09 A2998 RMK A01 T01500087  RH  066%=      5-min Rain = 0
KVA1 240016Z 01016KT 15/09 A2998 RMK A01 T01500088  RH  066%=      5-min Rain = 0
KVA1 240017Z 01013G18KT 15/09 A2998 RMK A01 T01490088  RH  067%=      5-min Rain = 0
KVA1 240018Z 02015KT 15/09 A2998 RMK A01 T01490088  RH  067%=      5-min Rain = 0
KVA1 240019Z 01014KT 15/09 A2998 RMK A01 T01490088  RH  067%=      5-min Rain = 0
KVA1 240020Z 02011KT 15/09 A2998 RMK A01 T01490087  RH  067%=      5-min Rain = 0
KVA1 240021Z 02012KT 15/09 A2998 RMK A01 T01500088  RH  066%=      5-min Rain = 0
KVA1 240022Z 01010KT 15/09 A2997 RMK A01 T01500088  RH  066%=      5-min Rain = 0
KVA1 240023Z 01010KT 15/09 A2997 RMK A01 T01500087  RH  066%=      5-min Rain = 0
KVA1 240024Z 01011KT 15/09 A2997 RMK A01 T01510087  RH  065%=      5-min Rain = 0
KVA1 240025Z 02009KT 15/09 A2997 RMK A01 T01510087  RH  065%=      5-min Rain = 0
KVA1 240026Z 02009KT 15/09 A2997 RMK A01 T01520087  RH  065%=      5-min Rain = 0
KVA1 240027Z 02007KT 15/09 A2998 RMK A01 T01520087  RH  065%=      5-min Rain = 0
KVA1 240028Z 02008KT 15/09 A2998 RMK A01 T01530088  RH  065%=      5-min Rain = 0
KVA1 240029Z 01007KT 15/09 A2997 RMK A01 T01540089  RH  065%=      5-min Rain = 0
KVA1 240030Z 01007KT 16/09 A2997 RMK A01 T01550089  RH  065%=      5-min Rain = 0
KVA1 240031Z 02008KT 16/09 A2997 RMK A01 T01560091  RH  065%=      5-min Rain = 0
KVA1 240032Z 01010KT 16/09 A2997 RMK A01 T01570091  RH  065%=      5-min Rain = 0
KVA1 240033Z 35008KT 16/09 A2997 RMK A01 T01580092  RH  065%=      5-min Rain = 0
KVA1 240034Z 00012KT 16/09 A2997 RMK A01 T01600092  RH  064%=      5-min Rain = 0
KVA1 240035Z 00012KT 16/09 A2997 RMK A01 T01610093  RH  064%=      5-min Rain = 0
KVA1 240036Z 01015KT 16/09 A2996 RMK A01 T01610094  RH  064%=      5-min Rain = 0
KVA1 240037Z 01013KT 16/09 A2996 RMK A01 T01610094  RH  064%=      5-min Rain = 0
KVA1 240038Z 01014KT 16/09 A2996 RMK A01 T01620093  RH  064%=      5-min Rain = 0
KVA1 240039Z 02013KT 16/09 A2996 RMK A01 T01620094  RH  064%=      5-min Rain = 0
KVA1 240040Z 02013KT 16/09 A2996 RMK A01 T01620094  RH  064%=      5-min Rain = 0
KVA1 240041Z 02014KT 16/10 A2996 RMK A01 T01610095  RH  064%=      5-min Rain = 0
KVA1 240042Z 02011KT 16/10 A2996 RMK A01 T01610095  RH  065%=      5-min Rain = 0
KVA1 240043Z 01010KT 16/10 A2996 RMK A01 T01600096  RH  065%=      5-min Rain = 0
KVA1 240044Z 01011KT 16/10 A2996 RMK A01 T01610096  RH  065%=      5-min Rain = 0
KVA1 240045Z 01011KT 16/10 A2996 RMK A01 T01610097  RH  066%=      5-min Rain = 0
KVA1 240046Z 01013KT 16/10 A2996 RMK A01 T01610097  RH  066%=      5-min Rain = 0
KVA1 240047Z 01013KT 16/10 A2996 RMK A01 T01620098  RH  066%=      5-min Rain = 0
KVA1 240048Z 02013KT 16/10 A2996 RMK A01 T01610098  RH  066%=      5-min Rain = 0
KVA1 240049Z 02012KT 16/10 A2996 RMK A01 T01610099  RH  066%=      5-min Rain = 0
KVA1 240050Z 01014KT 16/10 A2996 RMK A01 T01610098  RH  066%=      5-min Rain = 0
KVA1 240051Z 01013KT 16/10 A2996 RMK A01 T01620099  RH  066%=      5-min Rain = 0
KVA1 240052Z 02013KT 16/10 A2995 RMK A01 T01620099  RH  066%=      5-min Rain = 0
KVA1 240053Z 01014G19KT 16/10 A2995 RMK A01 T01630100  RH  066%=      5-min Rain = 0
KVA1 240054Z 02011KT 16/10 A2995 RMK A01 T01620099  RH  066%=      5-min Rain = 0
KVA1 240055Z 02012KT 16/10 A2996 RMK A01 T01630099  RH  066%=      5-min Rain = 0
KVA1 240056Z 01012KT 16/10 A2996 RMK A01 T01630099  RH  066%=      5-min Rain = 0
KVA1 240057Z 01011KT 16/10 A2996 RMK A01 T01630100  RH  066%=      5-min Rain = 0
KVA1 240058Z 02010KT 16/10 A2996 RMK A01 T01630100  RH  066%=      5-min Rain = 0
KVA1 240059Z 02010KT 16/10 A2996 RMK A01 T01630100  RH  066%=      5-min Rain = 0
KVA1 240100Z 02010G15KT 16/10 A2996 RMK A01 T01630100  RH  066%=      5-min Rain = 0
KVA1 240101Z 02012KT 16/10 A2996 RMK A01 T01630100  RH  066%=      5-min Rain = 0
KVA1 240102Z 02011KT 16/10 A2996 RMK A01 T01630100  RH  066%=      5-min Rain = 0
KVA1 240103Z 02013KT 16/10 A2996 RMK A01 T01630100  RH  066%=      5-min Rain = 0
KVA1 240104Z 01011KT 16/10 A2996 RMK A01 T01630100  RH  066%=      5-min Rain = 0
KVA1 240105Z 02011KT 16/10 A2997 RMK A01 T01640099  RH  065%=      5-min Rain = 0
KVA1 240106Z 01013KT 17/10 A2997 RMK A01 T01650099  RH  065%=      5-min Rain = 0
KVA1 240107Z 01013KT 17/10 A2997 RMK A01 T01650098  RH  065%=      5-min Rain = 0
KVA1 240108Z 01013KT 16/10 A2997 RMK A01 T01640097  RH  064%=      5-min Rain = 0
KVA1 240109Z 01012KT 16/10 A2997 RMK A01 T01640096  RH  064%=      5-min Rain = 0
KVA1 240110Z 01012KT 16/10 A2997 RMK A01 T01640095  RH  064%=      5-min Rain = 0
KVA1 240111Z 01009KT 16/10 A2997 RMK A01 T01640096  RH  064%=      5-min Rain = 0
KVA1 240112Z 01011KT 16/10 A2997 RMK A01 T01640096  RH  064%=      5-min Rain = 0
KVA1 240113Z 01011KT 16/10 A2997 RMK A01 T01630095  RH  064%=      5-min Rain = 0
KVA1 240114Z 01012KT 16/10 A2997 RMK A01 T01630095  RH  064%=      5-min Rain = 0
KVA1 240115Z 02010KT 16/10 A2997 RMK A01 T01630096  RH  064%=      5-min Rain = 0
KVA1 240116Z 02010KT 16/10 A2997 RMK A01 T01630095  RH  064%=      5-min Rain = 0
KVA1 240117Z 02009KT 16/10 A2997 RMK A01 T01630096  RH  064%=      5-min Rain = 0
KVA1 240118Z 02007KT 16/10 A2997 RMK A01 T01630095  RH  064%=      5-min Rain = 0
KVA1 240119Z 01008KT 16/09 A2997 RMK A01 T01620094  RH  064%=      5-min Rain = 0
KVA1 240120Z 01007KT 16/09 A2997 RMK A01 T01630094  RH  064%=      5-min Rain = 0
KVA1 240121Z 00009KT 16/09 A2997 RMK A01 T01630093  RH  064%=      5-min Rain = 0
KVA1 240122Z 01009KT 16/09 A2997 RMK A01 T01630092  RH  063%=      5-min Rain = 0
KVA1 240123Z 36009KT 16/09 A2997 RMK A01 T01620090  RH  062%=      5-min Rain = 0
KVA1 240124Z 00010KT 16/09 A2997 RMK A01 T01620089  RH  062%=      5-min Rain = 0
KVA1 240125Z 01011KT 16/09 A2996 RMK A01 T01620087  RH  061%=      5-min Rain = 0
KVA1 240126Z 01010KT 16/09 A2996 RMK A01 T01620086  RH  061%=      5-min Rain = 0
KVA1 240127Z 01012KT 16/09 A2996 RMK A01 T01620086  RH  061%=      5-min Rain = 0
KVA1 240128Z 00012KT 16/09 A2996 RMK A01 T01620085  RH  060%=      5-min Rain = 0
KVA1 240129Z 01009KT 16/09 A2996 RMK A01 T01620085  RH  060%=      5-min Rain = 0
KVA1 240130Z 02008KT 16/09 A2996 RMK A01 T01620086  RH  060%=      5-min Rain = 0
KVA1 240131Z 02010KT 16/09 A2996 RMK A01 T01620086  RH  060%=      5-min Rain = 0
KVA1 240132Z 02010KT 16/09 A2996 RMK A01 T01620085  RH  060%=      5-min Rain = 0
KVA1 240133Z 03010KT 16/08 A2996 RMK A01 T01620083  RH  060%=      5-min Rain = 0
KVA1 240134Z 03010KT 16/08 A2996 RMK A01 T01620081  RH  059%=      5-min Rain = 0
KVA1 240135Z 03009KT 16/08 A2996 RMK A01 T01620080  RH  058%=      5-min Rain = 0
KVA1 240136Z 03011KT 16/08 A2996 RMK A01 T01620080  RH  058%=      5-min Rain = 0
KVA1 240137Z 03011KT 16/08 A2996 RMK A01 T01620080  RH  058%=      5-min Rain = 0
KVA1 240138Z 03011KT 16/08 A2996 RMK A01 T01630080  RH  058%=      5-min Rain = 0
KVA1 240139Z 02010KT 16/08 A2996 RMK A01 T01630080  RH  058%=      5-min Rain = 0
KVA1 240140Z 03011KT 16/08 A2995 RMK A01 T01620080  RH  058%=      5-min Rain = 0
KVA1 240141Z 02010KT 16/08 A2995 RMK A01 T01620081  RH  059%=      5-min Rain = 0
KVA1 240142Z 02011KT 16/08 A2995 RMK A01 T01610081  RH  059%=      5-min Rain = 0
KVA1 240143Z 02012KT 16/08 A2995 RMK A01 T01610081  RH  059%=      5-min Rain = 0
KVA1 240144Z 02010KT 16/08 A2995 RMK A01 T01600081  RH  059%=      5-min Rain = 0
KVA1 240145Z 02009KT 16/08 A2995 RMK A01 T01600081  RH  059%=      5-min Rain = 0
KVA1 240146Z 02010KT 16/08 A2995 RMK A01 T01600081  RH  059%=      5-min Rain = 0
KVA1 240147Z 02009KT 16/08 A2995 RMK A01 T01600081  RH  059%=      5-min Rain = 0
KVA1 240148Z 02011KT 16/08 A2995 RMK A01 T01600081  RH  060%=      5-min Rain = 0
KVA1 240149Z 02011KT 16/08 A2995 RMK A01 T01600082  RH  060%=      5-min Rain = 0
KVA1 240150Z 02010KT 16/08 A2995 RMK A01 T01590082  RH  060%=      5-min Rain = 0
KVA1 240151Z 02010KT 16/08 A2995 RMK A01 T01590083  RH  060%=      5-min Rain = 0
KVA1 240152Z 02010KT 16/08 A2995 RMK A01 T01590083  RH  061%=      5-min Rain = 0
KVA1 240153Z 02010KT 16/08 A2995 RMK A01 T01580084  RH  061%=      5-min Rain = 0
KVA1 240154Z 02011KT 16/09 A2995 RMK A01 T01580085  RH  062%=      5-min Rain = 0
KVA1 240155Z 03012KT 16/09 A2994 RMK A01 T01580086  RH  062%=      5-min Rain = 0
KVA1 240156Z 03010KT 16/09 A2994 RMK A01 T01570087  RH  063%=      5-min Rain = 0
KVA1 240157Z 03009KT 16/09 A2994 RMK A01 T01570087  RH  063%=      5-min Rain = 0
KVA1 240158Z 04010KT 16/09 A2994 RMK A01 T01560088  RH  064%=      5-min Rain = 0
KVA1 240159Z 04008KT 16/09 A2994 RMK A01 T01560089  RH  064%=      5-min Rain = 0
KVA1 240200Z 04009KT 16/09 A2995 RMK A01 T01560090  RH  065%=      5-min Rain = 0
KVA1 240201Z 04008KT 16/09 A2995 RMK A01 T01550090  RH  065%=      5-min Rain = 0
KVA1 240202Z 05006KT 16/09 A2995 RMK A01 T01550091  RH  065%=      5-min Rain = 0
KVA1 240203Z 04006KT 16/09 A2995 RMK A01 T01550091  RH  066%=      5-min Rain = 0
KVA1 240204Z 04007KT 15/09 A2995 RMK A01 T01540091  RH  066%=      5-min Rain = 0
KVA1 240205Z 04005KT 15/09 A2995 RMK A01 T01540091  RH  066%=      5-min Rain = 0
KVA1 240206Z 04007KT 15/09 A2995 RMK A01 T01530091  RH  066%=      5-min Rain = 0
KVA1 240207Z 04007KT 15/09 A2995 RMK A01 T01530091  RH  066%=      5-min Rain = 0
KVA1 240208Z 04006KT 15/09 A2995 RMK A01 T01530091  RH  066%=      5-min Rain = 0
KVA1 240209Z 04006KT 15/09 A2995 RMK A01 T01530091  RH  067%=      5-min Rain = 0
KVA1 240210Z 03006KT 15/09 A2995 RMK A01 T01520091  RH  067%=      5-min Rain = 0
KVA1 240211Z 04006KT 15/09 A2995 RMK A01 T01520091  RH  067%=      5-min Rain = 0
KVA1 240212Z 04005KT 15/09 A2995 RMK A01 T01520091  RH  067%=      5-min Rain = 0
KVA1 240213Z 04007KT 15/09 A2995 RMK A01 T01510092  RH  068%=      5-min Rain = 0
KVA1 240214Z 05006KT 15/09 A2995 RMK A01 T01510092  RH  068%=      5-min Rain = 0
KVA1 240215Z 05007KT 15/09 A2995 RMK A01 T01500092  RH  068%=      5-min Rain = 0
KVA1 240216Z 05007KT 15/09 A2995 RMK A01 T01500093  RH  069%=      5-min Rain = 0
KVA1 240217Z 06007KT 15/09 A2995 RMK A01 T01490094  RH  070%=      5-min Rain = 0
KVA1 240218Z 06006KT 15/10 A2995 RMK A01 T01480095  RH  070%=      5-min Rain = 0
KVA1 240219Z 07008KT 15/10 A2995 RMK A01 T01470095  RH  071%=      5-min Rain = 0
KVA1 240220Z 07006KT 15/10 A2995 RMK A01 T01470096  RH  071%=      5-min Rain = 0
KVA1 240221Z 07007KT 15/10 A2995 RMK A01 T01460096  RH  072%=      5-min Rain = 0
KVA1 240222Z 07005KT 15/10 A2995 RMK A01 T01450097  RH  073%=      5-min Rain = 0
KVA1 240223Z 06004KT 14/10 A2995 RMK A01 T01440097  RH  073%=      5-min Rain = 0
KVA1 240224Z 06004KT 14/10 A2995 RMK A01 T01440097  RH  073%=      5-min Rain = 0
KVA1 240225Z 05005KT 14/10 A2995 RMK A01 T01430097  RH  074%=      5-min Rain = 0
KVA1 240226Z 04004KT 14/10 A2995 RMK A01 T01430097  RH  074%=      5-min Rain = 0
KVA1 240227Z 04005KT 14/10 A2995 RMK A01 T01420097  RH  074%=      5-min Rain = 0
KVA1 240228Z 04005KT 14/10 A2995 RMK A01 T01420097  RH  074%=      5-min Rain = 0
KVA1 240229Z 04004KT 14/10 A2995 RMK A01 T01420097  RH  075%=      5-min Rain = 0
KVA1 240230Z 05005KT 14/10 A2995 RMK A01 T01410097  RH  075%=      5-min Rain = 0
KVA1 240231Z 05005KT 14/10 A2995 RMK A01 T01410097  RH  075%=      5-min Rain = 0
KVA1 240232Z 06005KT 14/10 A2995 RMK A01 T01410097  RH  075%=      5-min Rain = 0
KVA1 240233Z 06006KT 14/10 A2995 RMK A01 T01410097  RH  075%=      5-min Rain = 0
KVA1 240234Z 06007KT 14/10 A2995 RMK A01 T01400097  RH  075%=      5-min Rain = 0
KVA1 240235Z 06007KT 14/10 A2995 RMK A01 T01400098  RH  076%=      5-min Rain = 0
KVA1 240236Z 05006KT 14/10 A2995 RMK A01 T01400097  RH  075%=      5-min Rain = 0
KVA1 240237Z 05006KT 14/10 A2995 RMK A01 T01400097  RH  075%=      5-min Rain = 0
KVA1 240238Z 05006KT 14/10 A2995 RMK A01 T01400097  RH  075%=      5-min Rain = 0
KVA1 240239Z 05005KT 14/10 A2995 RMK A01 T01400096  RH  075%=      5-min Rain = 0
KVA1 240240Z 03005KT 14/10 A2996 RMK A01 T01400097  RH  075%=      5-min Rain = 0
KVA1 240241Z 03006KT 14/10 A2996 RMK A01 T01390096  RH  075%=      5-min Rain = 0
KVA1 240242Z 03005KT 14/10 A2996 RMK A01 T01400097  RH  075%=      5-min Rain = 0
KVA1 240243Z 02006KT 14/10 A2995 RMK A01 T01390096  RH  075%=      5-min Rain = 0
KVA1 240244Z 03005KT 14/10 A2995 RMK A01 T01390096  RH  075%=      5-min Rain = 0
KVA1 240245Z 03006KT 14/10 A2995 RMK A01 T01390096  RH  075%=      5-min Rain = 0
KVA1 240246Z 04005KT 14/10 A2995 RMK A01 T01380096  RH  075%=      5-min Rain = 0
KVA1 240247Z 05006KT 14/10 A2996 RMK A01 T01380096  RH  075%=      5-min Rain = 0
KVA1 240248Z 06006KT 14/10 A2996 RMK A01 T01380096  RH  075%=      5-min Rain = 0
KVA1 240249Z 06007KT 14/10 A2996 RMK A01 T01380096  RH  075%=      5-min Rain = 0
KVA1 240250Z 06007KT 14/10 A2996 RMK A01 T01380095  RH  075%=      5-min Rain = 0
KVA1 240251Z 06007KT 14/10 A2996 RMK A01 T01380095  RH  075%=      5-min Rain = 0
KVA1 240252Z 06007KT 14/10 A2996 RMK A01 T01380095  RH  075%=      5-min Rain = 0
KVA1 240253Z 07007KT 14/09 A2996 RMK A01 T01380093  RH  075%=      5-min Rain = 0
KVA1 240254Z 06007KT 14/09 A2996 RMK A01 T01380093  RH  074%=      5-min Rain = 0
KVA1 240255Z 06007KT 14/09 A2996 RMK A01 T01380092  RH  074%=      5-min Rain = 0
KVA1 240256Z 05006KT 14/09 A2996 RMK A01 T01380091  RH  073%=      5-min Rain = 0
KVA1 240257Z 06007KT 14/09 A2996 RMK A01 T01380091  RH  073%=      5-min Rain = 0
KVA1 240258Z 06006KT 14/09 A2996 RMK A01 T01390090  RH  073%=      5-min Rain = 0
KVA1 240259Z 06007KT 14/09 A2996 RMK A01 T01390090  RH  072%=      5-min Rain = 0
KVA1 240300Z 06006KT 14/09 A2996 RMK A01 T01390089  RH  072%=      5-min Rain = 0
KVA1 240301Z 07006KT 14/09 A2996 RMK A01 T01380088  RH  072%=      5-min Rain = 0
KVA1 240302Z 07005KT 14/09 A2996 RMK A01 T01390088  RH  071%=      5-min Rain = 0
KVA1 240303Z 07006KT 14/09 A2996 RMK A01 T01380087  RH  071%=      5-min Rain = 0
KVA1 240304Z 07006KT 14/09 A2996 RMK A01 T01380086  RH  071%=      5-min Rain = 0
KVA1 240305Z 08006KT 14/09 A2996 RMK A01 T01370085  RH  071%=      5-min Rain = 0
KVA1 240306Z 08006KT 14/09 A2996 RMK A01 T01370085  RH  071%=      5-min Rain = 0
KVA1 240307Z 08006KT 14/08 A2996 RMK A01 T01370084  RH  071%=      5-min Rain = 0
KVA1 240308Z 08006KT 14/08 A2996 RMK A01 T01370084  RH  070%=      5-min Rain = 0
KVA1 240309Z 08006KT 14/08 A2996 RMK A01 T01370083  RH  070%=      5-min Rain = 0
KVA1 240310Z 08006KT 14/08 A2996 RMK A01 T01370083  RH  070%=      5-min Rain = 0
KVA1 240311Z 07006KT 14/08 A2996 RMK A01 T01370083  RH  070%=      5-min Rain = 0
KVA1 240312Z 07006KT 14/08 A2996 RMK A01 T01370082  RH  070%=      5-min Rain = 0
KVA1 240313Z 06006KT 14/08 A2996 RMK A01 T01370082  RH  069%=      5-min Rain = 0
KVA1 240314Z 06006KT 14/08 A2996 RMK A01 T01380081  RH  069%=      5-min Rain = 0
KVA1 240315Z 05006KT 14/08 A2996 RMK A01 T01380080  RH  068%=      5-min Rain = 0
KVA1 240316Z 05006KT 14/08 A2996 RMK A01 T01380080  RH  068%=      5-min Rain = 0
KVA1 240317Z 05006KT 14/08 A2997 RMK A01 T01380080  RH  068%=      5-min Rain = 0
KVA1 240318Z 05006KT 14/08 A2997 RMK A01 T01380080  RH  068%=      5-min Rain = 0
KVA1 240319Z 05005KT 14/08 A2997 RMK A01 T01380080  RH  068%=      5-min Rain = 0
KVA1 240320Z 05006KT 14/08 A2997 RMK A01 T01380080  RH  068%=      5-min Rain = 0
KVA1 240321Z 05006KT 14/08 A2997 RMK A01 T01380080  RH  068%=      5-min Rain = 0
KVA1 240322Z 05007KT 14/08 A2997 RMK A01 T01370080  RH  068%=      5-min Rain = 0
KVA1 240323Z 04007KT 14/08 A2997 RMK A01 T01370079  RH  068%=      5-min Rain = 0
KVA1 240324Z 04007KT 14/08 A2997 RMK A01 T01370079  RH  068%=      5-min Rain = 0
KVA1 240325Z 04007KT 14/08 A2997 RMK A01 T01370078  RH  068%=      5-min Rain = 0
KVA1 240326Z 05008KT 14/08 A2997 RMK A01 T01370078  RH  068%=      5-min Rain = 0
KVA1 240327Z 04008KT 14/08 A2997 RMK A01 T01360078  RH  068%=      5-min Rain = 0
KVA1 240328Z 04008KT 14/08 A2997 RMK A01 T01370077  RH  067%=      5-min Rain = 0
KVA1 240329Z 06007KT 14/08 A2997 RMK A01 T01370078  RH  067%=      5-min Rain = 0
KVA1 240330Z 05009KT 14/08 A2997 RMK A01 T01370077  RH  067%=      5-min Rain = 0
KVA1 240331Z 05008KT 14/08 A2997 RMK A01 T01370077  RH  067%=      5-min Rain = 0
KVA1 240332Z 05008KT 14/08 A2997 RMK A01 T01370077  RH  067%=      5-min Rain = 0
KVA1 240333Z 05008KT 14/08 A2997 RMK A01 T01370077  RH  067%=      5-min Rain = 0
KVA1 240334Z 06008KT 14/08 A2997 RMK A01 T01370078  RH  067%=      5-min Rain = 0
KVA1 240335Z 05009KT 14/08 A2998 RMK A01 T01370078  RH  067%=      5-min Rain = 0
KVA1 240336Z 06008KT 14/08 A2998 RMK A01 T01370078  RH  067%=      5-min Rain = 0
KVA1 240337Z 06009KT 14/08 A2998 RMK A01 T01370078  RH  068%=      5-min Rain = 0
KVA1 240338Z 05011KT 14/08 A2998 RMK A01 T01380080  RH  068%=      5-min Rain = 0
KVA1 240339Z 05012KT 14/08 A2998 RMK A01 T01400083  RH  068%=      5-min Rain = 0
KVA1 240340Z 06009KT 14/08 A2998 RMK A01 T01410084  RH  068%=      5-min Rain = 0
KVA1 240341Z 05011KT 14/08 A2998 RMK A01 T01420083  RH  068%=      5-min Rain = 0
KVA1 240342Z 05012KT 14/09 A2998 RMK A01 T01420085  RH  069%=      5-min Rain = 0
KVA1 240343Z 05013KT 14/09 A2998 RMK A01 T01420088  RH  069%=      5-min Rain = 0
KVA1 240344Z 06011KT 14/09 A2998 RMK A01 T01430089  RH  070%=      5-min Rain = 0
KVA1 240345Z 05012KT 14/09 A2998 RMK A01 T01440090  RH  070%=      5-min Rain = 0
KVA1 240346Z 06012KT 14/09 A2998 RMK A01 T01440090  RH  070%=      5-min Rain = 0
KVA1 240347Z 05011KT 14/09 A2998 RMK A01 T01440091  RH  070%=      5-min Rain = 0
KVA1 240348Z 05011KT 15/09 A2998 RMK A01 T01450092  RH  070%=      5-min Rain = 0
KVA1 240349Z 05010KT 15/09 A2998 RMK A01 T01450092  RH  071%=      5-min Rain = 0
KVA1 240350Z 05010KT 15/09 A2998 RMK A01 T01450092  RH  071%=      5-min Rain = 0
KVA1 240351Z 05011KT 15/09 A2998 RMK A01 T01450093  RH  071%=      5-min Rain = 0
KVA1 240352Z 05012KT 15/09 A2998 RMK A01 T01450093  RH  071%=      5-min Rain = 0
KVA1 240353Z 05010KT 15/09 A2998 RMK A01 T01450093  RH  071%=      5-min Rain = 0
KVA1 240354Z 05010KT 15/09 A2998 RMK A01 T01450093  RH  071%=      5-min Rain = 0
KVA1 240355Z 05011KT 15/09 A2998 RMK A01 T01450094  RH  071%=      5-min Rain = 0
KVA1 240356Z 05013KT 15/09 A2998 RMK A01 T01450094  RH  072%=      5-min Rain = 0
KVA1 240357Z 05013KT 15/09 A2998 RMK A01 T01450094  RH  072%=      5-min Rain = 0
KVA1 240358Z 05012KT 15/09 A2998 RMK A01 T01450094  RH  071%=      5-min Rain = 0
KVA1 240359Z 05011KT 15/09 A2998 RMK A01 T01450094  RH  071%=      5-min Rain = 0
KVA1 240400Z 05011KT 15/09 A2998 RMK A01 T01450094  RH  072%=      5-min Rain = 0
KVA1 240401Z 05011KT 15/10 A2998 RMK A01 T01450095  RH  072%=      5-min Rain = 0
KVA1 240402Z 05009KT 15/10 A2998 RMK A01 T01450095  RH  072%=      5-min Rain = 0
KVA1 240403Z 05010KT 14/10 A2998 RMK A01 T01440095  RH  072%=      5-min Rain = 0
KVA1 240404Z 05011KT 14/10 A2998 RMK A01 T01440095  RH  072%=      5-min Rain = 0
KVA1 240405Z 05009KT 14/10 A2998 RMK A01 T01440095  RH  072%=      5-min Rain = 0
KVA1 240406Z 05010KT 14/10 A2998 RMK A01 T01440095  RH  072%=      5-min Rain = 0
KVA1 240407Z 05011KT 14/09 A2998 RMK A01 T01430094  RH  072%=      5-min Rain = 0
KVA1 240408Z 04010KT 14/09 A2998 RMK A01 T01430093  RH  072%=      5-min Rain = 0
KVA1 240409Z 04009KT 14/09 A2998 RMK A01 T01430093  RH  072%=      5-min Rain = 0
KVA1 240410Z 04009KT 14/09 A2999 RMK A01 T01430093  RH  072%=      5-min Rain = 0
KVA1 240411Z 04008KT 14/09 A2999 RMK A01 T01430093  RH  072%=      5-min Rain = 0
KVA1 240412Z 04009KT 14/09 A2999 RMK A01 T01430092  RH  072%=      5-min Rain = 0
KVA1 240413Z 05008KT 14/09 A2999 RMK A01 T01420091  RH  071%=      5-min Rain = 0
KVA1 240414Z 05008KT 14/09 A2999 RMK A01 T01420091  RH  071%=      5-min Rain = 0
KVA1 240415Z 05008KT 14/09 A2999 RMK A01 T01420091  RH  071%=      5-min Rain = 0
KVA1 240416Z 05008KT 14/09 A2999 RMK A01 T01430090  RH  071%=      5-min Rain = 0
KVA1 240417Z 06008KT 14/09 A2999 RMK A01 T01420090  RH  071%=      5-min Rain = 0
KVA1 240418Z 06008KT 14/09 A2999 RMK A01 T01430089  RH  070%=      5-min Rain = 0
KVA1 240419Z 06007KT 14/09 A2999 RMK A01 T01420089  RH  070%=      5-min Rain = 0
KVA1 240420Z 06008KT 14/09 A2999 RMK A01 T01420090  RH  071%=      5-min Rain = 0
KVA1 240421Z 06009KT 14/09 A2999 RMK A01 T01420091  RH  071%=      5-min Rain = 0
KVA1 240422Z 06009KT 14/09 A2999 RMK A01 T01420091  RH  071%=      5-min Rain = 0
KVA1 240423Z 06008KT 14/09 A2999 RMK A01 T01430091  RH  071%=      5-min Rain = 0
KVA1 240424Z 06008KT 14/09 A2999 RMK A01 T01430091  RH  071%=      5-min Rain = 0
KVA1 240425Z 06007KT 14/09 A2999 RMK A01 T01430092  RH  071%=      5-min Rain = 0
KVA1 240426Z 06008KT 14/09 A2999 RMK A01 T01420092  RH  072%=      5-min Rain = 0
KVA1 240427Z 06008KT 14/09 A2999 RMK A01 T01420093  RH  072%=      5-min Rain = 0
KVA1 240428Z 06009KT 14/09 A2999 RMK A01 T01420093  RH  073%=      5-min Rain = 0
KVA1 240429Z 05009KT 14/09 A2999 RMK A01 T01420094  RH  073%=      5-min Rain = 0
KVA1 240430Z 05010KT 14/09 A2999 RMK A01 T01420094  RH  073%=      5-min Rain = 0
KVA1 240431Z 06011KT 14/09 A2999 RMK A01 T01420094  RH  073%=      5-min Rain = 0
KVA1 240432Z 05009KT 14/09 A2999 RMK A01 T01420094  RH  073%=      5-min Rain = 0
KVA1 240433Z 05009KT 14/09 A2999 RMK A01 T01420094  RH  073%=      5-min Rain = 0
KVA1 240434Z 05009KT 14/09 A2999 RMK A01 T01420094  RH  073%=      5-min Rain = 0
KVA1 240435Z 06009KT 14/10 A30 RMK A01 T01420095  RH  073%=      5-min Rain = 0
KVA1 240436Z 06011KT 14/10 A30 RMK A01 T01420095  RH  073%=      5-min Rain = 0
KVA1 240437Z 06010KT 14/10 A30 RMK A01 T01420095  RH  074%=      5-min Rain = 0
KVA1 240438Z 05010KT 14/10 A30 RMK A01 T01420095  RH  074%=      5-min Rain = 0
KVA1 240439Z 05010KT 14/10 A30 RMK A01 T01420096  RH  074%=      5-min Rain = 0
KVA1 240440Z 05010KT 14/10 A2999 RMK A01 T01430096  RH  074%=      5-min Rain = 0
KVA1 240441Z 05009KT 14/10 A2999 RMK A01 T01420097  RH  074%=      5-min Rain = 0
KVA1 240442Z 05012KT 14/10 A2999 RMK A01 T01420097  RH  074%=      5-min Rain = 0
KVA1 240443Z 05010KT 14/10 A2999 RMK A01 T01420097  RH  074%=      5-min Rain = 0
KVA1 240444Z 04010KT 14/10 A2999 RMK A01 T01420097  RH  074%=      5-min Rain = 0
KVA1 240445Z 04011KT 14/10 A2998 RMK A01 T01420097  RH  074%=      5-min Rain = 0
KVA1 240446Z 03011KT 14/10 A2998 RMK A01 T01420097  RH  075%=      5-min Rain = 0
KVA1 240447Z 04011KT 14/10 A2998 RMK A01 T01420098  RH  075%=      5-min Rain = 0
KVA1 240448Z 03011G16KT 14/10 A2998 RMK A01 T01420097  RH  074%=      5-min Rain = 0
KVA1 240449Z 03012KT 14/10 A2998 RMK A01 T01420097  RH  074%=      5-min Rain = 0
KVA1 240450Z 03014KT 14/10 A2998 RMK A01 T01430097  RH  074%=      5-min Rain = 0
KVA1 240451Z 03015KT 14/10 A2998 RMK A01 T01430098  RH  074%=      5-min Rain = 0
KVA1 240452Z 03012KT 14/10 A2998 RMK A01 T01440098  RH  074%=      5-min Rain = 0
KVA1 240453Z 03015KT 14/10 A2998 RMK A01 T01440098  RH  074%=      5-min Rain = 0
KVA1 240454Z 02018KT 15/10 A2998 RMK A01 T01450099  RH  074%=      5-min Rain = 0
KVA1 240455Z 03016KT 15/10 A2998 RMK A01 T01460100  RH  074%=      5-min Rain = 0
KVA1 240456Z 03015G20KT 15/10 A2998 RMK A01 T01460100  RH  074%=      5-min Rain = 0
KVA1 240457Z 03014KT 15/10 A2998 RMK A01 T01460100  RH  074%=      5-min Rain = 0
KVA1 240458Z 03014G19KT 15/10 A2998 RMK A01 T01460100  RH  074%=      5-min Rain = 0
KVA1 240459Z 03014G20KT 15/10 A2998 RMK A01 T01460100  RH  074%=      5-min Rain = 0

Page generated in 0.1429 seconds.